AF1158 / EI-RJF 7700 Squawk Report (14th of July, 2019)

Aircraft RJ85 Reg No. EI-RJF Age 20 years old
Model 146-RJ85 Jet engines 4 First flight 20-10-98
Registered 24-08-07 Rollout 10-98 Delivered 29-10-98
Construction No. E2337 Line No. 337 Series N/A
ADSHEX 4CA612 Airline name CityJet Owner N/A
Airfield based Dublin~Co Dublin~EI First tracked 2017-07-13 13:49:00
Time Lat Lon Altitude Heading Speed Vertical Rate
2019-07-14 15:38:52 GMT 55.034126 -1.704108 0 64 17 0
2019-07-14 15:38:40 GMT 55.034126 -1.702381 0 64 14 0
2019-07-14 15:37:39 GMT 55.034973 -1.696368 0 64 14 0
2019-07-14 15:37:27 GMT 55.035152 -1.695348 0 64 15 0
2019-07-14 15:37:06 GMT 55.035667 -1.693106 0 64 14 0
2019-07-14 15:36:31 GMT 55.036522 -1.689502 0 64 15 0
2019-07-14 15:33:07 GMT 55.009094 -1.779785 875 64 126 -640
2019-07-14 15:33:00 GMT 55.007008 -1.787442 975 64 135 -832
2019-07-14 15:32:53 GMT 55.005157 -1.794003 1,050 64 148 -768
2019-07-14 15:32:44 GMT 55.002586 -1.803256 1,175 64 146 -1024
2019-07-14 15:32:36 GMT 55.000027 -1.812744 1,250 67 167 -1024
2019-07-14 15:32:26 GMT 54.996552 -1.826315 1,450 67 167 -1024
2019-07-14 15:32:22 GMT 54.995728 -1.829870 1,500 68 172 -896
2019-07-14 15:32:11 GMT 54.992432 -1.844007 1,650 67 181 -1088
2019-07-14 15:32:08 GMT 54.991425 -1.848611 1,850 63 186 -256
2019-07-14 15:32:04 GMT 54.990051 -1.853620 1,775 66 184 -960
2019-07-14 15:32:00 GMT 54.988174 -1.860971 1,850 64 185 -320
2019-07-14 15:31:52 GMT 54.985611 -1.870099 1,875 63 186 -320
2019-07-14 15:31:47 GMT 54.980118 -1.887952 1,875 62 186 256
2019-07-14 15:31:40 GMT 54.980118 -1.887952 1,900 59 193 -128
2019-07-14 15:31:30 GMT 54.976006 -1.899636 1,875 56 194 64
2019-07-14 15:31:23 GMT 54.972233 -1.909041 1,875 54 192 192
2019-07-14 15:31:20 GMT 54.970505 -1.912833 1,900 49 192 -256
2019-07-14 15:31:09 GMT 54.962971 -1.923024 2,075 25 193 -1856
2019-07-14 15:31:03 GMT 54.958328 -1.926485 2,275 22 194 -1600
2019-07-14 15:30:58 GMT 54.953938 -1.929682 2,375 22 194 -1536
2019-07-14 15:30:50 GMT 54.946472 -1.934886 2,650 20 195 -1856
2019-07-14 15:30:41 GMT 54.940018 -1.938683 2,875 15 194 -1664
2019-07-14 15:30:37 GMT 54.936218 -1.940056 2,950 10 196 -768
2019-07-14 15:30:32 GMT 54.931267 -1.941168 3,025 3 201 -768
2019-07-14 15:30:26 GMT 54.926331 -1.941833 3,100 3 200 -1088
2019-07-14 15:30:22 GMT 54.921959 -1.942333 3,150 3 203 -192
2019-07-14 15:30:17 GMT 54.917404 -1.942884 3,150 3 208 -320
2019-07-14 15:30:10 GMT 54.910995 -1.943530 3,200 3 215 -576
2019-07-14 15:30:07 GMT 54.907063 -1.944081 3,275 3 218 -1280
2019-07-14 15:30:01 GMT 54.901566 -1.944742 3,400 4 219 -1472
2019-07-14 15:29:55 GMT 54.895424 -1.945579 3,575 4 219 -1792
2019-07-14 15:29:49 GMT 54.888840 -1.946438 3,750 3 219 -1664
2019-07-14 15:29:45 GMT 54.884949 -1.947004 3,850 3 219 -1600
2019-07-14 15:29:38 GMT 54.877533 -1.947973 4,050 4 219 -1472
2019-07-14 15:29:35 GMT 54.874237 -1.948538 4,125 4 220 -1280
2019-07-14 15:29:30 GMT 54.869865 -1.949158 4,200 5 222 -1024
2019-07-14 15:29:24 GMT 54.863663 -1.950073 4,300 4 224 -896
2019-07-14 15:29:19 GMT 54.858948 -1.950719 4,375 4 225 -1088
2019-07-14 15:29:16 GMT 54.855530 -1.951238 4,425 4 225 -1472
2019-07-14 15:29:13 GMT 54.852829 -1.951571 4,500 4 224 -1472
2019-07-14 15:29:08 GMT 54.846962 -1.952320 4,625 4 224 -896
2019-07-14 15:29:03 GMT 54.842148 -1.952981 4,675 4 223 -192
2019-07-14 15:28:58 GMT 54.835648 -1.953870 4,675 4 224 0
2019-07-14 15:28:52 GMT 54.830715 -1.954484 4,675 4 224 0
2019-07-14 15:28:48 GMT 54.826584 -1.954839 4,650 4 242 -448
2019-07-14 15:28:42 GMT 54.819855 -1.955728 4,650 3 232 -64
2019-07-14 15:28:38 GMT 54.815460 -1.956213 4,650 3 237 -192
2019-07-14 15:28:32 GMT 54.808548 -1.957101 4,700 4 242 -448
2019-07-14 15:28:27 GMT 54.804108 -1.957748 4,750 4 243 -960
2019-07-14 15:28:21 GMT 54.797058 -1.958646 4,850 4 244 -960
2019-07-14 15:28:17 GMT 54.792023 -1.959363 4,925 4 244 -1024
2019-07-14 15:28:12 GMT 54.785156 -1.960333 5,025 4 244 -960
2019-07-14 15:28:07 GMT 54.781082 -1.961060 5,075 4 244 -1024
2019-07-14 15:28:01 GMT 54.773209 -1.961867 5,200 3 245 -1024
2019-07-14 15:27:56 GMT 54.769127 -1.962391 5,250 3 246 -1024
2019-07-14 15:27:50 GMT 54.761169 -1.963241 5,375 3 246 -1024
2019-07-14 15:27:46 GMT 54.757767 -1.963640 5,425 2 246 -960
2019-07-14 15:27:39 GMT 54.749359 -1.964291 5,550 2 247 -960
2019-07-14 15:27:36 GMT 54.745895 -1.964638 5,600 2 247 -960
2019-07-14 15:27:31 GMT 54.738831 -1.965179 5,650 2 247 -128
2019-07-14 15:27:26 GMT 54.733841 -1.965664 5,675 2 257 -192
2019-07-14 15:27:22 GMT 54.729557 -1.966053 5,675 2 247 64
2019-07-14 15:27:17 GMT 54.724297 -1.966553 5,675 3 247 64
2019-07-14 15:27:12 GMT 54.718094 -1.967037 5,675 2 249 0
2019-07-14 15:27:08 GMT 54.713078 -1.967551 5,675 2 250 -64
2019-07-14 15:27:04 GMT 54.700230 -1.968633 5,725 2 257 -192
2019-07-14 15:26:57 GMT 54.700230 -1.968633 5,675 2 257 0
2019-07-14 15:26:54 GMT 54.697159 -1.968800 5,700 2 257 -64
2019-07-14 15:26:47 GMT 54.689056 -1.969299 5,725 0 259 -896
2019-07-14 15:26:44 GMT 54.685318 -1.969461 5,775 0 259 -1024
2019-07-14 15:26:37 GMT 54.676395 -1.968966 5,925 356 260 -1536
2019-07-14 15:26:33 GMT 54.672226 -1.968330 6,025 354 260 -1472
2019-07-14 15:26:27 GMT 54.663315 -1.966220 6,200 353 262 -1472
2019-07-14 15:26:24 GMT 54.660599 -1.965745 6,275 353 262 -1536
2019-07-14 15:26:17 GMT 54.652542 -1.964048 6,625 353 264 -1472
2019-07-14 15:26:13 GMT 54.648193 -1.962998 6,525 354 262 -1472
2019-07-14 15:26:07 GMT 54.640549 -1.961302 7,675 353 264 -1472
2019-07-14 15:26:03 GMT 54.635376 -1.960252 6,775 353 264 -1472
2019-07-14 15:25:56 GMT 54.627274 -1.958313 6,950 353 265 -1472
2019-07-14 15:25:53 GMT 54.623184 -1.957481 7,025 353 266 -1216
2019-07-14 15:25:46 GMT 54.615086 -1.955733 7,125 353 266 -1024
2019-07-14 15:25:42 GMT 54.607178 -1.954032 7,175 353 266 -1024
2019-07-14 15:25:36 GMT 54.602425 -1.952820 7,575 353 266 -960
2019-07-14 15:25:32 GMT 54.596237 -1.951689 7,400 353 267 -1024
2019-07-14 15:25:29 GMT 54.588181 -1.949750 7,500 353 268 -960
2019-07-14 15:25:25 GMT 54.588181 -1.949750 7,500 353 268 -960
2019-07-14 15:25:21 GMT 54.581287 -1.948242 7,600 353 268 -960
2019-07-14 15:25:15 GMT 54.577148 -1.947327 7,625 353 268 -896
2019-07-14 15:25:11 GMT 54.570786 -1.945792 7,675 353 268 -192
2019-07-14 15:25:06 GMT 54.566391 -1.944822 7,675 352 267 64
2019-07-14 15:25:00 GMT 54.557556 -1.942237 7,675 347 269 0
2019-07-14 15:24:54 GMT 54.551823 -1.939836 7,675 344 268 -64
2019-07-14 15:24:50 GMT 54.547073 -1.937633 7,675 344 268 0
2019-07-14 15:24:47 GMT 54.542511 -1.935258 7,675 344 268 0
2019-07-14 15:24:43 GMT 54.538555 -1.933011 7,675 344 268 0
2019-07-14 15:24:40 GMT 54.535080 -1.931251 7,675 344 268 0
2019-07-14 15:24:37 GMT 54.531525 -1.929432 7,675 344 268 0
2019-07-14 15:24:33 GMT 54.526497 -1.926769 7,675 343 268 0
2019-07-14 15:24:30 GMT 54.522537 -1.924708 7,675 343 268 0
2019-07-14 15:24:26 GMT 54.517281 -1.921858 7,675 343 268 0
2019-07-14 15:24:23 GMT 54.514114 -1.920265 7,675 344 268 0
2019-07-14 15:24:20 GMT 54.510681 -1.918407 7,675 343 268 0
2019-07-14 15:24:16 GMT 54.505051 -1.915499 7,675 344 268 0
2019-07-14 15:24:12 GMT 54.501434 -1.913398 7,675 344 268 64
2019-07-14 15:24:09 GMT 54.497177 -1.911379 7,675 343 268 0
2019-07-14 15:24:02 GMT 54.489628 -1.907293 7,675 343 268 -64
2019-07-14 15:23:59 GMT 54.485367 -1.904997 7,675 343 268 0
2019-07-14 15:23:55 GMT 54.480377 -1.902493 7,675 343 267 0
2019-07-14 15:23:52 GMT 54.477081 -1.900716 7,675 343 267 64
2019-07-14 15:23:48 GMT 54.472450 -1.898138 7,675 343 267 0
2019-07-14 15:23:42 GMT 54.464722 -1.894226 7,675 343 267 0
2019-07-14 15:23:39 GMT 54.460556 -1.891991 7,675 343 266 -64
2019-07-14 15:23:35 GMT 54.457180 -1.890065 7,675 344 267 0
2019-07-14 15:23:31 GMT 54.452225 -1.887548 7,675 344 267 0
2019-07-14 15:23:26 GMT 54.446320 -1.884398 7,700 344 267 0
2019-07-14 15:23:23 GMT 54.441742 -1.882055 7,675 344 267 0
2019-07-14 15:23:20 GMT 54.439350 -1.880826 7,675 344 267 64
2019-07-14 15:23:17 GMT 54.432129 -1.877046 7,675 344 267 0
2019-07-14 15:23:11 GMT 54.427994 -1.874834 7,675 344 267 0
2019-07-14 15:23:06 GMT 54.420776 -1.871069 7,675 344 267 0
2019-07-14 15:23:00 GMT 54.415466 -1.868322 7,675 344 268 0
2019-07-14 15:22:57 GMT 54.413002 -1.867093 7,675 343 266 0
2019-07-14 15:22:54 GMT 54.407730 -1.864364 7,675 344 268 0
2019-07-14 15:22:50 GMT 54.403645 -1.862099 7,675 352 264 128
2019-07-14 15:22:47 GMT 54.395874 -1.857982 7,675 343 267 64
2019-07-14 15:22:44 GMT 54.395874 -1.857982 7,675 343 267 64
2019-07-14 15:22:41 GMT 54.393497 -1.856773 7,675 343 266 64
2019-07-14 15:22:38 GMT 54.389740 -1.854751 7,675 343 267 64
2019-07-14 15:22:35 GMT 54.385208 -1.852445 7,675 343 266 0
2019-07-14 15:22:32 GMT 54.383301 -1.851446 7,675 343 266 0
2019-07-14 15:22:29 GMT 54.378693 -1.849032 7,675 343 266 0
2019-07-14 15:22:23 GMT 54.371017 -1.844976 7,675 343 266 0
2019-07-14 15:22:19 GMT 54.363098 -1.840856 7,675 344 267 -64
2019-07-14 15:22:11 GMT 54.357929 -1.838046 7,675 344 267 -64
2019-07-14 15:22:08 GMT 54.354126 -1.836171 7,675 344 267 -64
2019-07-14 15:22:05 GMT 54.351242 -1.834636 7,675 344 267 -64
2019-07-14 15:22:02 GMT 54.345703 -1.831889 7,700 344 268 0
2019-07-14 15:21:57 GMT 54.341965 -1.829806 7,700 344 268 0
2019-07-14 15:21:54 GMT 54.334888 -1.826394 7,700 344 267 0
2019-07-14 15:21:49 GMT 54.332016 -1.824861 7,700 344 267 0
2019-07-14 15:21:46 GMT 54.328278 -1.822981 7,700 344 267 -64
2019-07-14 15:21:42 GMT 54.319664 -1.818820 7,700 345 266 64
2019-07-14 15:21:36 GMT 54.316772 -1.817429 7,700 345 266 64
2019-07-14 15:21:33 GMT 54.311783 -1.815410 7,675 347 265 128
2019-07-14 15:21:30 GMT 54.308853 -1.814198 7,675 354 264 64
2019-07-14 15:21:27 GMT 54.304916 -1.812663 7,675 349 265 128
2019-07-14 15:21:24 GMT 54.301804 -1.811775 7,675 352 264 128
2019-07-14 15:21:20 GMT 54.296806 -1.810663 7,675 0 265 -128
2019-07-14 15:21:17 GMT 54.290104 -1.810663 7,675 9 264 0
2019-07-14 15:21:14 GMT 54.284958 -1.811856 7,675 9 264 0
2019-07-14 15:21:11 GMT 54.284958 -1.811856 7,675 9 264 0
2019-07-14 15:21:07 GMT 54.279831 -1.813390 7,675 9 264 0
2019-07-14 15:21:04 GMT 54.274464 -1.815087 7,675 10 264 0
2019-07-14 15:20:58 GMT 54.270741 -1.816137 7,675 10 264 0
2019-07-14 15:20:54 GMT 54.260925 -1.819022 7,675 10 264 0
2019-07-14 15:20:51 GMT 54.259052 -1.819772 7,675 10 264 64
2019-07-14 15:20:48 GMT 54.253784 -1.821298 7,675 10 264 64
2019-07-14 15:20:45 GMT 54.253784 -1.821298 7,675 9 263 0
2019-07-14 15:20:42 GMT 54.251652 -1.821953 7,675 10 264 0
2019-07-14 15:20:38 GMT 54.246532 -1.823488 7,675 10 264 -64
2019-07-14 15:20:35 GMT 54.241596 -1.824861 7,675 10 264 0
2019-07-14 15:20:29 GMT 54.235359 -1.826800 7,700 10 266 -1024
2019-07-14 15:20:26 GMT 54.231903 -1.827811 7,725 9 265 -576
2019-07-14 15:20:22 GMT 54.222698 -1.830678 7,875 10 266 -960
2019-07-14 15:20:19 GMT 54.219589 -1.831578 7,875 10 266 -1024
2019-07-14 15:20:16 GMT 54.213913 -1.833461 7,950 10 266 -960
2019-07-14 15:20:12 GMT 54.213913 -1.833461 7,950 10 266 -960
2019-07-14 15:20:09 GMT 54.210297 -1.834481 7,975 10 265 -960
2019-07-14 15:20:06 GMT 54.206589 -1.835686 8,050 10 265 -960
2019-07-14 15:20:03 GMT 54.202957 -1.836898 8,100 10 266 -1024
2019-07-14 15:19:58 GMT 54.197754 -1.838484 8,175 10 266 -1024
2019-07-14 15:19:55 GMT 54.190388 -1.840856 8,275 10 267 -1024
2019-07-14 15:19:52 GMT 54.185989 -1.842172 8,300 10 267 -1024
2019-07-14 15:19:49 GMT 54.185989 -1.842172 8,325 10 267 -960
2019-07-14 15:19:46 GMT 54.183220 -1.843037 8,400 10 268 -960
2019-07-14 15:19:42 GMT 54.178238 -1.844815 8,475 10 268 -1024
2019-07-14 15:19:38 GMT 54.172440 -1.846488 8,575 10 268 -960
2019-07-14 15:19:35 GMT 54.169113 -1.847723 8,775 10 268 -1024
2019-07-14 15:19:32 GMT 54.166740 -1.848369 8,600 10 268 -1024
2019-07-14 15:19:29 GMT 54.162598 -1.849784 8,700 10 268 -1024
2019-07-14 15:19:26 GMT 54.158981 -1.850961 8,700 10 268 -1024
2019-07-14 15:19:23 GMT 54.155777 -1.851981 8,775 9 268 -896
2019-07-14 15:19:20 GMT 54.151054 -1.853377 8,950 359 272 -960
2019-07-14 15:19:17 GMT 54.144562 -1.854963 8,900 0 272 -1024
2019-07-14 15:19:09 GMT 54.136528 -1.855478 9,000 359 272 -960
2019-07-14 15:19:06 GMT 54.128662 -1.854185 9,050 352 274 -1024
2019-07-14 15:19:03 GMT 54.128662 -1.854185 9,125 346 274 -1024
2019-07-14 15:19:00 GMT 54.126572 -1.853472 9,125 349 274 -1024
2019-07-14 15:18:57 GMT 54.121586 -1.851439 9,250 335 276 -1024
2019-07-14 15:18:54 GMT 54.119019 -1.849941 9,200 342 276 -1024
2019-07-14 15:18:50 GMT 54.114304 -1.847037 9,300 333 277 -960
2019-07-14 15:18:47 GMT 54.110786 -1.844168 9,400 333 276 -960
2019-07-14 15:18:44 GMT 54.107105 -1.841018 9,400 333 276 -1024
2019-07-14 15:18:40 GMT 54.101986 -1.836413 9,500 333 277 -1024
2019-07-14 15:18:37 GMT 54.099285 -1.833990 9,525 333 277 -1024
2019-07-14 15:18:34 GMT 54.096027 -1.831082 9,550 333 277 -960
2019-07-14 15:18:31 GMT 54.092537 -1.828012 9,625 333 277 -960
2019-07-14 15:18:28 GMT 54.089138 -1.824942 9,675 333 277 -960
2019-07-14 15:18:23 GMT 54.077957 -1.815098 9,825 333 278 -1024
2019-07-14 15:18:19 GMT 54.075165 -1.812509 9,850 333 278 -1024
2019-07-14 15:18:13 GMT 54.068298 -1.806309 9,950 333 280 -960
2019-07-14 15:18:10 GMT 54.068298 -1.806309 10,000 333 280 -960
2019-07-14 15:18:07 GMT 54.064728 -1.803249 10,025 333 279 -1024
2019-07-14 15:18:03 GMT 54.059784 -1.799011 10,100 333 280 -1024
2019-07-14 15:18:00 GMT 54.056366 -1.795780 10,150 333 280 -1024
2019-07-14 15:17:57 GMT 54.053467 -1.793204 10,175 333 279 -1024
2019-07-14 15:17:54 GMT 54.050034 -1.790222 10,200 333 280 -1024
2019-07-14 15:17:49 GMT 54.044632 -1.785435 10,350 333 280 -1024
2019-07-14 15:17:46 GMT 54.041050 -1.782209 10,375 333 280 -1024
2019-07-14 15:17:43 GMT 54.037464 -1.779058 10,400 333 280 -1024
2019-07-14 15:17:40 GMT 54.034485 -1.776473 10,525 333 279 -960
2019-07-14 15:17:37 GMT 54.029552 -1.772030 10,525 333 278 -1024
2019-07-14 15:17:33 GMT 54.026108 -1.768960 10,600 333 278 -960
2019-07-14 15:17:30 GMT 54.022018 -1.765346 10,650 333 278 -1024
2019-07-14 15:17:25 GMT 54.012562 -1.756924 10,750 333 279 -1024
2019-07-14 15:17:22 GMT 54.012562 -1.756924 10,775 333 280 -1024
2019-07-14 15:17:18 GMT 54.007858 -1.752966 10,825 333 280 -1024
2019-07-14 15:17:15 GMT 54.005577 -1.750784 10,875 333 280 -1024
2019-07-14 15:17:12 GMT 54.002289 -1.747846 10,925 333 280 -1024
2019-07-14 15:17:09 GMT 53.998268 -1.744241 11,000 333 281 -960
2019-07-14 15:17:05 GMT 53.994080 -1.740525 11,050 333 281 -960
2019-07-14 15:17:02 GMT 53.990074 -1.736971 11,075 333 281 -1024
2019-07-14 15:16:58 GMT 53.985580 -1.732858 11,175 333 280 -1024
2019-07-14 15:16:55 GMT 53.981647 -1.729458 11,425 333 281 -1024
2019-07-14 15:16:52 GMT 53.978760 -1.726894 11,250 333 281 -1024
2019-07-14 15:16:47 GMT 53.971893 -1.720851 11,375 333 281 -1024
2019-07-14 15:16:44 GMT 53.970016 -1.719203 11,400 333 281 -1024
2019-07-14 15:16:41 GMT 53.967041 -1.716535 11,450 333 281 -960
2019-07-14 15:16:37 GMT 53.960377 -1.710717 11,550 333 281 -960
2019-07-14 15:16:34 GMT 53.958801 -1.709237 11,575 333 282 -960
2019-07-14 15:16:31 GMT 53.954510 -1.705547 11,600 333 282 -1024
2019-07-14 15:16:27 GMT 53.950241 -1.701625 11,675 333 282 -1024
2019-07-14 15:16:23 GMT 53.944920 -1.696822 11,750 333 282 -1024
2019-07-14 15:16:20 GMT 53.942001 -1.694249 11,775 333 282 -1024
2019-07-14 15:16:14 GMT 53.934818 -1.687936 11,925 333 282 -1024
2019-07-14 15:16:11 GMT 53.931244 -1.684675 11,950 333 282 -1024
2019-07-14 15:16:05 GMT 53.924019 -1.678323 12,050 333 283 -1024
2019-07-14 15:16:02 GMT 53.920715 -1.675415 12,075 333 283 -1024
2019-07-14 15:15:59 GMT 53.917282 -1.672433 12,125 333 283 -960
2019-07-14 15:15:54 GMT 53.911102 -1.666940 12,250 333 284 -960
2019-07-14 15:15:51 GMT 53.908035 -1.664272 12,250 333 284 -960
2019-07-14 15:15:48 GMT 53.899063 -1.656346 12,425 333 284 -1024
2019-07-14 15:15:44 GMT 53.899063 -1.656346 12,425 333 284 -1024
2019-07-14 15:15:41 GMT 53.896133 -1.653756 12,450 333 284 -1024
2019-07-14 15:15:38 GMT 53.891525 -1.649646 13,875 333 284 -960
2019-07-14 15:15:35 GMT 53.889633 -1.647871 12,600 333 283 -960
2019-07-14 15:15:32 GMT 53.884827 -1.643790 12,600 333 283 -960
2019-07-14 15:15:29 GMT 53.881794 -1.640921 12,650 333 283 -1024
2019-07-14 15:15:26 GMT 53.878006 -1.637826 12,700 333 283 -1024
2019-07-14 15:15:23 GMT 53.875214 -1.635158 12,825 333 283 -960
2019-07-14 15:15:20 GMT 53.872532 -1.633005 12,800 333 284 -960
2019-07-14 15:15:17 GMT 53.868900 -1.629773 12,825 333 284 -960
2019-07-14 15:15:14 GMT 53.860794 -1.622681 12,925 333 284 -1024
2019-07-14 15:15:11 GMT 53.860794 -1.622681 12,950 333 284 -1024
2019-07-14 15:15:08 GMT 53.858379 -1.620645 12,975 333 285 -1024
2019-07-14 15:15:05 GMT 53.854794 -1.617333 13,075 333 286 -1024
2019-07-14 15:15:02 GMT 53.847252 -1.610628 13,150 333 287 -1024
2019-07-14 15:14:59 GMT 53.847252 -1.610628 13,225 333 289 -960
2019-07-14 15:14:56 GMT 53.843620 -1.607558 13,200 333 287 -960
2019-07-14 15:14:53 GMT 53.840038 -1.604327 13,275 333 287 -1024
2019-07-14 15:14:50 GMT 53.836639 -1.601257 13,325 333 288 -1024
2019-07-14 15:14:47 GMT 53.833195 -1.598349 13,350 333 288 -1024
2019-07-14 15:14:44 GMT 53.830261 -1.595764 13,400 333 288 -1024
2019-07-14 15:14:41 GMT 53.825272 -1.591448 13,425 333 288 -1024
2019-07-14 15:14:38 GMT 53.821510 -1.588171 13,500 333 288 -1024
2019-07-14 15:14:35 GMT 53.819462 -1.586313 13,525 333 288 -960
2019-07-14 15:14:32 GMT 53.815201 -1.582581 13,625 333 288 -960
2019-07-14 15:14:29 GMT 53.807217 -1.575649 14,700 333 293 -1024
2019-07-14 15:14:26 GMT 53.807217 -1.575649 13,750 333 288 -1024
2019-07-14 15:14:22 GMT 53.803120 -1.571853 13,750 333 288 -1024
2019-07-14 15:14:19 GMT 53.799866 -1.568926 13,800 333 288 -1024
2019-07-14 15:14:16 GMT 53.796791 -1.566198 13,875 333 289 -1024
2019-07-14 15:14:13 GMT 53.793671 -1.563613 13,925 333 289 -1024
2019-07-14 15:14:10 GMT 53.788834 -1.559509 14,000 333 289 -960
2019-07-14 15:14:07 GMT 53.785263 -1.556213 14,025 333 289 -1024
2019-07-14 15:14:04 GMT 53.782150 -1.553467 14,075 333 289 -1024
2019-07-14 15:14:01 GMT 53.778122 -1.550122 14,125 333 290 -1024
2019-07-14 15:13:58 GMT 53.774094 -1.546404 14,275 333 290 -1024
2019-07-14 15:13:54 GMT 53.770161 -1.543014 14,275 333 291 -1024
2019-07-14 15:13:51 GMT 53.766579 -1.539944 14,300 333 291 -1024
2019-07-14 15:13:48 GMT 53.757828 -1.532189 14,375 333 292 -960
2019-07-14 15:13:44 GMT 53.757828 -1.532189 14,450 333 292 -1024
2019-07-14 15:13:41 GMT 53.753544 -1.528634 14,475 333 292 -1024
2019-07-14 15:13:38 GMT 53.749958 -1.525565 14,500 333 292 -1024
2019-07-14 15:13:34 GMT 53.746719 -1.522627 14,550 333 292 -960
2019-07-14 15:13:31 GMT 53.742920 -1.519409 14,600 333 292 -960
2019-07-14 15:13:28 GMT 53.738754 -1.515721 14,650 333 292 -960
2019-07-14 15:13:25 GMT 53.734970 -1.512478 14,725 333 292 -960
2019-07-14 15:13:21 GMT 53.730515 -1.508501 14,775 333 292 -1024
2019-07-14 15:13:18 GMT 53.726761 -1.505284 14,825 333 292 -1024
2019-07-14 15:13:15 GMT 53.722588 -1.501653 14,900 333 292 -1024
2019-07-14 15:13:11 GMT 53.717285 -1.497044 14,975 333 292 -1024
2019-07-14 15:13:08 GMT 53.714218 -1.494298 15,025 333 292 -1024
2019-07-14 15:13:05 GMT 53.711319 -1.491879 15,075 333 293 -1024
2019-07-14 15:13:02 GMT 53.707169 -1.488255 15,125 333 293 -1024
2019-07-14 15:12:59 GMT 53.703415 -1.485038 15,150 333 294 -1024
2019-07-14 15:12:56 GMT 53.700348 -1.482448 15,200 333 294 -1024
2019-07-14 15:12:53 GMT 53.691238 -1.474601 15,300 333 294 -1024
2019-07-14 15:12:49 GMT 53.691238 -1.474601 15,825 333 295 -960
2019-07-14 15:12:46 GMT 53.687073 -1.470755 15,350 333 295 -1024
2019-07-14 15:12:43 GMT 53.684692 -1.468715 15,425 333 295 -1024
2019-07-14 15:12:40 GMT 53.681076 -1.465576 15,475 333 295 -960
2019-07-14 15:12:37 GMT 53.677002 -1.462202 15,550 333 295 -960
2019-07-14 15:12:31 GMT 53.669357 -1.455453 15,625 333 295 -1024
2019-07-14 15:12:28 GMT 53.665329 -1.452079 15,650 333 295 -1024
2019-07-14 15:12:25 GMT 53.662067 -1.449145 15,725 333 295 -1024
2019-07-14 15:12:22 GMT 53.653969 -1.442279 15,875 333 295 -1024
2019-07-14 15:12:18 GMT 53.653969 -1.442279 15,825 333 295 -960
2019-07-14 15:12:15 GMT 53.650757 -1.439371 15,875 333 295 -1024
2019-07-14 15:12:12 GMT 53.643169 -1.433070 15,950 333 296 -960
2019-07-14 15:12:06 GMT 53.638699 -1.429030 16,050 333 296 -1024
2019-07-14 15:12:00 GMT 53.628021 -1.419747 16,150 333 297 -1024
2019-07-14 15:11:57 GMT 53.628021 -1.419747 16,175 333 297 -1024
2019-07-14 15:11:53 GMT 53.623901 -1.416216 16,225 333 297 -1024
2019-07-14 15:11:50 GMT 53.620171 -1.413116 16,300 333 298 -1024
2019-07-14 15:11:47 GMT 53.616531 -1.410017 16,325 333 298 -1024
2019-07-14 15:11:44 GMT 53.607971 -1.402483 16,425 333 300 -960
2019-07-14 15:11:41 GMT 53.607971 -1.402483 16,450 333 300 -960
2019-07-14 15:11:38 GMT 53.603645 -1.398818 16,525 333 299 -960
2019-07-14 15:11:35 GMT 53.601151 -1.396676 16,550 333 301 -1024
2019-07-14 15:11:32 GMT 53.597992 -1.393851 16,575 333 299 -960
2019-07-14 15:11:29 GMT 53.594379 -1.390740 16,700 333 300 -1024
2019-07-14 15:11:26 GMT 53.589771 -1.386701 16,725 333 300 -1088
2019-07-14 15:11:20 GMT 53.583572 -1.381295 16,800 333 301 -1024
2019-07-14 15:11:17 GMT 53.578415 -1.376845 16,850 333 302 -1024
2019-07-14 15:11:14 GMT 53.574505 -1.373453 16,900 333 302 -960
2019-07-14 15:11:11 GMT 53.571198 -1.370464 17,025 333 303 -1024
2019-07-14 15:11:08 GMT 53.568684 -1.368283 17,000 333 303 -960
2019-07-14 15:11:05 GMT 53.563332 -1.363840 17,025 333 303 -960
2019-07-14 15:11:01 GMT 53.559189 -1.360204 17,125 333 303 -1024
2019-07-14 15:10:58 GMT 53.554871 -1.356576 17,150 333 303 -1024
2019-07-14 15:10:55 GMT 53.550797 -1.352809 17,225 333 304 -1024
2019-07-14 15:10:52 GMT 53.546814 -1.349513 17,250 333 304 -1024
2019-07-14 15:10:49 GMT 53.544430 -1.347522 17,275 333 304 -1024
2019-07-14 15:10:46 GMT 53.540707 -1.344290 17,350 333 304 -1024
2019-07-14 15:10:43 GMT 53.536743 -1.340803 17,400 333 304 -960
2019-07-14 15:10:40 GMT 53.531708 -1.336487 17,475 333 304 -960
2019-07-14 15:10:34 GMT 53.524925 -1.330719 17,575 333 304 -1024
2019-07-14 15:10:31 GMT 53.520584 -1.326913 17,625 333 304 -1024
2019-07-14 15:10:28 GMT 53.517517 -1.324166 17,675 333 304 -960
2019-07-14 15:10:25 GMT 53.514915 -1.321914 18,050 333 304 -1024
2019-07-14 15:10:22 GMT 53.510422 -1.318124 17,950 333 304 -1024
2019-07-14 15:10:19 GMT 53.505138 -1.313512 17,825 333 304 -1024
2019-07-14 15:10:16 GMT 53.502274 -1.311140 17,850 333 304 -1024
2019-07-14 15:10:13 GMT 53.498482 -1.307696 17,925 333 304 -1024
2019-07-14 15:10:10 GMT 53.495224 -1.305019 17,950 333 304 -1024
2019-07-14 15:10:07 GMT 53.491287 -1.301723 18,050 333 303 -960
2019-07-14 15:10:04 GMT 53.487808 -1.298584 18,150 333 303 -960
2019-07-14 15:10:01 GMT 53.479019 -1.291051 18,125 333 303 -960
2019-07-14 15:09:58 GMT 53.479019 -1.291051 18,225 333 302 -960
2019-07-14 15:09:55 GMT 53.475998 -1.288309 18,225 333 302 -960
2019-07-14 15:09:52 GMT 53.473392 -1.286047 18,275 333 303 -1024
2019-07-14 15:09:49 GMT 53.468033 -1.281634 18,550 333 303 -1024
2019-07-14 15:09:46 GMT 53.464325 -1.278338 18,375 333 303 -1024
2019-07-14 15:09:43 GMT 53.462078 -1.276272 18,450 333 304 -1024
2019-07-14 15:09:40 GMT 53.456402 -1.271506 18,450 333 304 -1024
2019-07-14 15:09:37 GMT 53.455006 -1.270294 18,525 333 305 -1024
2019-07-14 15:09:34 GMT 53.446472 -1.262878 18,600 334 307 -1024
2019-07-14 15:09:31 GMT 53.443314 -1.260289 18,650 334 307 -1024
2019-07-14 15:09:25 GMT 53.437317 -1.255188 18,675 334 308 -1024
2019-07-14 15:09:22 GMT 53.433701 -1.252049 18,775 334 309 -1024
2019-07-14 15:09:19 GMT 53.430611 -1.249533 18,850 334 309 -1024
2019-07-14 15:09:16 GMT 53.427567 -1.246948 18,875 334 309 -1024
2019-07-14 15:09:13 GMT 53.422882 -1.243151 18,925 334 309 -960
2019-07-14 15:09:10 GMT 53.419113 -1.239839 18,950 334 309 -960
2019-07-14 15:09:07 GMT 53.415760 -1.237012 19,000 334 307 -1024
2019-07-14 15:09:04 GMT 53.411106 -1.233054 20,350 334 305 -1024
2019-07-14 15:09:00 GMT 53.405613 -1.228611 19,175 334 306 -960
2019-07-14 15:08:57 GMT 53.402435 -1.225760 19,175 334 306 -960
2019-07-14 15:08:54 GMT 53.399094 -1.222956 19,425 334 305 -1024
2019-07-14 15:08:51 GMT 53.391460 -1.216332 19,325 334 305 -1024
2019-07-14 15:08:48 GMT 53.387875 -1.213424 19,425 334 305 -1024
2019-07-14 15:08:45 GMT 53.387875 -1.213424 19,375 334 305 -960
2019-07-14 15:08:41 GMT 53.383255 -1.209516 19,450 334 305 -1024
2019-07-14 15:08:38 GMT 53.378998 -1.205906 19,500 334 305 -1024
2019-07-14 15:08:35 GMT 53.374466 -1.201904 19,550 334 305 -1024
2019-07-14 15:08:29 GMT 53.367580 -1.196056 19,700 334 306 -1024
2019-07-14 15:08:26 GMT 53.363205 -1.192409 19,675 334 306 -1024
2019-07-14 15:08:23 GMT 53.359406 -1.189270 19,750 334 306 -1024
2019-07-14 15:08:20 GMT 53.351807 -1.182521 19,825 334 306 -960
2019-07-14 15:08:17 GMT 53.351807 -1.182521 19,850 334 307 -960
2019-07-14 15:08:14 GMT 53.344803 -1.176714 20,400 334 308 -1024
2019-07-14 15:08:11 GMT 53.344803 -1.176714 19,950 334 307 -1024
2019-07-14 15:08:08 GMT 53.341599 -1.173968 20,050 334 308 -1024
2019-07-14 15:08:05 GMT 53.337601 -1.170690 20,050 334 308 -1024
2019-07-14 15:08:02 GMT 53.333595 -1.167217 20,075 334 307 -1024
2019-07-14 15:07:59 GMT 53.329926 -1.164080 20,175 334 308 -1024
2019-07-14 15:07:56 GMT 53.324890 -1.159865 20,200 334 308 -1024
2019-07-14 15:07:53 GMT 53.321320 -1.157017 20,225 334 308 -1024
2019-07-14 15:07:50 GMT 53.318573 -1.154742 20,300 334 307 -1024
2019-07-14 15:07:47 GMT 53.314728 -1.151446 20,350 334 308 -960
2019-07-14 15:07:44 GMT 53.309669 -1.147102 20,425 333 307 -1024
2019-07-14 15:07:41 GMT 53.306828 -1.144840 20,475 333 307 -1024
2019-07-14 15:07:38 GMT 53.303661 -1.141932 20,525 333 307 -1024
2019-07-14 15:07:35 GMT 53.298660 -1.137791 20,725 333 309 -1024
2019-07-14 15:07:32 GMT 53.295609 -1.135227 20,600 333 307 -1024
2019-07-14 15:07:29 GMT 53.290878 -1.131042 20,650 334 308 -960
2019-07-14 15:07:26 GMT 53.287601 -1.128441 20,700 333 309 -960
2019-07-14 15:07:23 GMT 53.282902 -1.124241 20,750 333 309 -1024
2019-07-14 15:07:20 GMT 53.273941 -1.116682 20,850 333 309 -1024
2019-07-14 15:07:16 GMT 53.273941 -1.116682 20,975 334 310 -1024
2019-07-14 15:07:13 GMT 53.270142 -1.113386 20,925 334 310 -1024
2019-07-14 15:07:10 GMT 53.267624 -1.111346 21,450 334 317 -960
2019-07-14 15:07:07 GMT 53.263302 -1.107600 21,025 333 312 -1024
2019-07-14 15:07:04 GMT 53.254688 -1.100329 21,075 333 312 -1024
2019-07-14 15:06:58 GMT 53.252129 -1.098148 21,150 334 313 -1024
2019-07-14 15:06:55 GMT 53.243866 -1.091099 21,275 333 314 -1024
2019-07-14 15:06:49 GMT 53.239185 -1.087081 21,325 334 315 -1024
2019-07-14 15:06:46 GMT 53.236301 -1.084658 21,375 334 316 -1024
2019-07-14 15:06:43 GMT 53.231506 -1.080584 21,425 334 317 -1024
2019-07-14 15:06:40 GMT 53.227688 -1.077306 21,500 334 317 -1024
2019-07-14 15:06:37 GMT 53.224106 -1.074237 21,525 334 317 -960
2019-07-14 15:06:34 GMT 53.216049 -1.067532 21,625 334 317 -960
2019-07-14 15:06:31 GMT 53.216049 -1.067532 21,625 334 317 -960
2019-07-14 15:06:28 GMT 53.212746 -1.064785 21,675 334 317 -1024
2019-07-14 15:06:25 GMT 53.205528 -1.058565 21,775 334 318 -1024
2019-07-14 15:06:22 GMT 53.205528 -1.058565 21,800 334 318 -1024
2019-07-14 15:06:19 GMT 53.200104 -1.054138 21,825 334 318 -1024
2019-07-14 15:06:16 GMT 53.197708 -1.051941 21,850 334 318 -1024
2019-07-14 15:06:13 GMT 53.193939 -1.048871 22,500 334 318 -1024
2019-07-14 15:06:10 GMT 53.188492 -1.044267 21,950 334 318 -1024
2019-07-14 15:06:07 GMT 53.184536 -1.040793 22,000 334 318 -960
2019-07-14 15:06:04 GMT 53.181557 -1.038370 22,050 334 318 -960
2019-07-14 15:06:01 GMT 53.177078 -1.034598 22,100 334 318 -960
2019-07-14 15:05:58 GMT 53.172455 -1.030753 23,650 334 318 -1024
2019-07-14 15:05:55 GMT 53.169891 -1.028556 22,200 334 318 -1024
2019-07-14 15:05:52 GMT 53.165123 -1.024637 22,225 334 318 -1024
2019-07-14 15:05:49 GMT 53.161285 -1.021179 22,325 334 318 -960
2019-07-14 15:05:46 GMT 53.156322 -1.017043 22,375 334 319 -960
2019-07-14 15:05:43 GMT 53.153393 -1.014700 22,400 334 319 -1024
2019-07-14 15:05:40 GMT 53.150711 -1.012469 22,650 334 319 -1024
2019-07-14 15:05:37 GMT 53.145401 -1.007839 22,525 334 319 -1024
2019-07-14 15:05:34 GMT 53.137939 -1.001639 22,575 334 319 -1024
2019-07-14 15:05:31 GMT 53.137939 -1.001639 22,625 334 319 -1024
2019-07-14 15:05:28 GMT 53.133514 -0.997898 22,675 334 319 -1024
2019-07-14 15:05:25 GMT 53.129044 -0.994101 22,700 334 319 -1024
2019-07-14 15:05:22 GMT 53.126266 -0.991673 22,800 334 320 -1024
2019-07-14 15:05:19 GMT 53.121368 -0.987592 22,875 334 320 -1024
2019-07-14 15:05:16 GMT 53.117020 -0.983904 22,825 334 320 -1024
2019-07-14 15:05:13 GMT 53.114319 -0.981785 22,900 334 320 -1024
2019-07-14 15:05:10 GMT 53.110470 -0.978429 22,925 334 320 -960
2019-07-14 15:05:07 GMT 53.105675 -0.974471 23,025 334 319 -960
2019-07-14 15:05:04 GMT 53.101906 -0.971240 23,075 334 319 -960
2019-07-14 15:05:01 GMT 53.098343 -0.968366 23,125 334 318 -1024
2019-07-14 15:04:58 GMT 53.093536 -0.964432 23,175 334 318 -1024
2019-07-14 15:04:55 GMT 53.090359 -0.961618 23,275 334 318 -1024
2019-07-14 15:04:52 GMT 53.086761 -0.958710 24,450 334 318 -1024
2019-07-14 15:04:49 GMT 53.079117 -0.952377 23,325 334 318 -1024
2019-07-14 15:04:43 GMT 53.074265 -0.948181 23,450 334 320 -1024
2019-07-14 15:04:40 GMT 53.066757 -0.941925 23,475 334 322 -1024
2019-07-14 15:04:37 GMT 53.066757 -0.941925 23,500 334 319 -960
2019-07-14 15:04:34 GMT 53.062592 -0.938416 23,575 334 319 -960
2019-07-14 15:04:31 GMT 53.058006 -0.934701 23,600 334 319 -960
2019-07-14 15:04:28 GMT 53.053345 -0.930786 25,125 334 322 -1024
2019-07-14 15:04:25 GMT 53.050598 -0.928497 23,700 334 321 -1024
2019-07-14 15:04:21 GMT 53.046181 -0.924735 23,725 334 321 -960
2019-07-14 15:04:18 GMT 53.040070 -0.919724 23,800 334 322 -1024
2019-07-14 15:04:15 GMT 53.037369 -0.917511 23,900 334 323 -1024
2019-07-14 15:04:12 GMT 53.032791 -0.913620 23,925 334 322 -1024
2019-07-14 15:04:09 GMT 53.028122 -0.909805 24,100 334 323 -1024
2019-07-14 15:04:06 GMT 53.025467 -0.907516 24,050 334 322 -1024
2019-07-14 15:04:03 GMT 53.020386 -0.903244 24,125 334 322 -1024
2019-07-14 15:04:00 GMT 53.016762 -0.900173 24,100 334 323 -1024
2019-07-14 15:03:57 GMT 53.013382 -0.897293 24,275 334 323 -960
2019-07-14 15:03:54 GMT 53.009544 -0.894130 24,200 334 323 -1024
2019-07-14 15:03:51 GMT 53.004799 -0.890206 24,400 334 324 -1024
2019-07-14 15:03:48 GMT 52.997070 -0.883929 24,425 334 324 -1024
2019-07-14 15:03:45 GMT 52.997070 -0.883929 24,400 334 324 -1024
2019-07-14 15:03:42 GMT 52.992928 -0.880319 24,475 334 324 -1024
2019-07-14 15:03:39 GMT 52.988434 -0.876465 24,500 334 324 -1024
2019-07-14 15:03:36 GMT 52.984688 -0.873413 24,525 334 324 -1024
2019-07-14 15:03:33 GMT 52.981194 -0.870431 24,575 334 324 -1024
2019-07-14 15:03:30 GMT 52.977051 -0.867214 24,650 334 325 -1024
2019-07-14 15:03:27 GMT 52.973515 -0.864153 24,725 334 325 -1024
2019-07-14 15:03:24 GMT 52.969437 -0.860748 24,800 334 325 -1024
2019-07-14 15:03:21 GMT 52.963924 -0.856070 24,825 334 325 -1024
2019-07-14 15:03:18 GMT 52.961315 -0.854030 24,825 334 325 -1024
2019-07-14 15:03:15 GMT 52.956161 -0.849686 24,900 334 325 -1024
2019-07-14 15:03:12 GMT 52.953217 -0.847281 24,900 334 325 -1024
2019-07-14 15:03:09 GMT 52.949112 -0.843811 24,975 334 325 -960
2019-07-14 15:03:06 GMT 52.944031 -0.839615 25,075 334 325 -1024
2019-07-14 15:03:03 GMT 52.940002 -0.836334 25,100 334 325 -1024
2019-07-14 15:03:00 GMT 52.937119 -0.833893 25,150 334 325 -1024
2019-07-14 15:02:54 GMT 52.927895 -0.826407 25,250 334 324 -1024
2019-07-14 15:02:51 GMT 52.923431 -0.822601 25,325 334 324 -960
2019-07-14 15:02:48 GMT 52.919907 -0.819778 25,350 334 323 -1024
2019-07-14 15:02:45 GMT 52.916580 -0.816990 25,375 334 323 -1024
2019-07-14 15:02:42 GMT 52.911713 -0.812988 25,475 334 323 -1024
2019-07-14 15:02:39 GMT 52.904476 -0.806946 25,525 334 323 -1024
2019-07-14 15:02:33 GMT 52.895554 -0.799561 25,625 334 323 -960
2019-07-14 15:02:29 GMT 52.895554 -0.799561 26,150 334 323 -1024
2019-07-14 15:02:26 GMT 52.890556 -0.795646 25,700 334 323 -1024
2019-07-14 15:02:23 GMT 52.886627 -0.792313 25,750 334 323 -1024
2019-07-14 15:02:20 GMT 52.882828 -0.789261 25,975 334 323 -1024
2019-07-14 15:02:17 GMT 52.879028 -0.786209 25,925 334 323 -960
2019-07-14 15:02:14 GMT 52.875149 -0.783090 25,900 334 323 -960
2019-07-14 15:02:11 GMT 52.870541 -0.779166 26,075 334 323 -1024
2019-07-14 15:02:05 GMT 52.863091 -0.772967 26,075 334 324 -1024
2019-07-14 15:02:02 GMT 52.858345 -0.769200 26,100 334 324 -1024
2019-07-14 15:01:59 GMT 52.855083 -0.766453 26,150 334 325 -1024
2019-07-14 15:01:56 GMT 52.851791 -0.763855 26,175 334 325 -1024
2019-07-14 15:01:53 GMT 52.841633 -0.755467 26,275 334 324 -1024
2019-07-14 15:01:50 GMT 52.841633 -0.755467 26,325 334 324 -1024
2019-07-14 15:01:44 GMT 52.833481 -0.748825 27,375 334 344 -960
2019-07-14 15:01:41 GMT 52.829948 -0.745815 26,475 334 326 -1024
2019-07-14 15:01:38 GMT 52.825756 -0.742440 26,500 334 326 -1024
2019-07-14 15:01:34 GMT 52.820251 -0.737991 26,625 334 326 -1024
2019-07-14 15:01:31 GMT 52.816406 -0.734863 26,750 334 326 -960
2019-07-14 15:01:28 GMT 52.812653 -0.731583 26,675 334 326 -960
2019-07-14 15:01:25 GMT 52.809044 -0.728707 26,750 334 327 -1024
2019-07-14 15:01:22 GMT 52.800293 -0.721488 26,825 334 330 -1024
2019-07-14 15:01:19 GMT 52.800293 -0.721488 26,825 334 329 -1024
2019-07-14 15:01:16 GMT 52.797268 -0.718977 26,850 334 329 -1024
2019-07-14 15:01:13 GMT 52.792286 -0.714818 27,400 334 331 -1024
2019-07-14 15:01:07 GMT 52.783676 -0.707779 27,050 334 336 -1024
2019-07-14 15:01:04 GMT 52.779922 -0.704727 27,075 334 334 -960
2019-07-14 15:01:01 GMT 52.775711 -0.701218 27,125 334 335 -1024
2019-07-14 15:00:57 GMT 52.769802 -0.696298 27,325 334 347 -1024
2019-07-14 15:00:54 GMT 52.761841 -0.689926 27,250 334 341 -1024
2019-07-14 15:00:51 GMT 52.761841 -0.689926 27,325 334 342 -1024
2019-07-14 15:00:47 GMT 52.755184 -0.684448 27,350 334 343 -960
2019-07-14 15:00:44 GMT 52.751724 -0.681458 27,375 334 344 -1024
2019-07-14 15:00:41 GMT 52.747318 -0.678092 27,500 334 348 -960
2019-07-14 15:00:38 GMT 52.739227 -0.671387 27,525 334 351 -1024
2019-07-14 15:00:35 GMT 52.739227 -0.671387 27,575 334 355 -960
2019-07-14 15:00:32 GMT 52.733688 -0.667038 27,600 334 355 -960
2019-07-14 15:00:28 GMT 52.729797 -0.663834 27,625 334 356 -1024
2019-07-14 15:00:25 GMT 52.722931 -0.658340 27,725 335 360 -960
2019-07-14 15:00:19 GMT 52.714188 -0.651321 27,825 334 365 -1024
2019-07-14 15:00:16 GMT 52.711193 -0.648821 27,950 334 367 -1024
2019-07-14 15:00:13 GMT 52.705280 -0.643956 28,000 334 368 0
2019-07-14 15:00:10 GMT 52.700455 -0.640182 28,000 334 368 -768
2019-07-14 15:00:07 GMT 52.697460 -0.637678 28,000 334 368 0
2019-07-14 15:00:04 GMT 52.691345 -0.632782 28,000 334 368 0
2019-07-14 15:00:01 GMT 52.686752 -0.629046 28,000 334 368 0
2019-07-14 14:59:58 GMT 52.682098 -0.625201 28,025 334 368 0
2019-07-14 14:59:55 GMT 52.679211 -0.622846 28,025 334 368 0
2019-07-14 14:59:52 GMT 52.674648 -0.619158 28,025 334 368 0
2019-07-14 14:59:49 GMT 52.670086 -0.615313 28,000 333 368 64
2019-07-14 14:59:46 GMT 52.664223 -0.610447 28,000 334 368 0
2019-07-14 14:59:43 GMT 52.659286 -0.606524 28,025 334 368 0
2019-07-14 14:59:40 GMT 52.656166 -0.603777 28,000 333 368 0
2019-07-14 14:59:37 GMT 52.650440 -0.598912 28,025 333 368 -64
2019-07-14 14:59:34 GMT 52.646530 -0.595551 28,025 333 368 -64
2019-07-14 14:59:31 GMT 52.641689 -0.591535 28,025 333 368 64
2019-07-14 14:59:27 GMT 52.631149 -0.582352 28,000 333 368 64
2019-07-14 14:59:24 GMT 52.626747 -0.578509 28,025 333 368 64
2019-07-14 14:59:18 GMT 52.618332 -0.571289 28,000 333 368 0
2019-07-14 14:59:12 GMT 52.612736 -0.566502 28,000 333 368 0
2019-07-14 14:59:09 GMT 52.608265 -0.562735 28,000 333 368 0
2019-07-14 14:59:06 GMT 52.603638 -0.558624 28,025 333 368 0
2019-07-14 14:59:03 GMT 52.599327 -0.554810 28,000 333 367 0
2019-07-14 14:58:57 GMT 52.585464 -0.542831 28,000 333 368 0
2019-07-14 14:58:54 GMT 52.585464 -0.542831 28,000 333 368 0
2019-07-14 14:58:51 GMT 52.581345 -0.539246 28,000 333 368 0
2019-07-14 14:58:48 GMT 52.576843 -0.535427 28,000 333 368 0
2019-07-14 14:58:45 GMT 52.567703 -0.527496 28,000 333 365 0
2019-07-14 14:58:42 GMT 52.567703 -0.527496 28,000 333 367 0
2019-07-14 14:58:39 GMT 52.563263 -0.523758 28,000 333 367 0
2019-07-14 14:58:36 GMT 52.558273 -0.519409 28,000 333 366 0
2019-07-14 14:58:33 GMT 52.554543 -0.516200 28,000 333 367 0
2019-07-14 14:58:30 GMT 52.550865 -0.512905 28,000 333 367 0
2019-07-14 14:58:27 GMT 52.546024 -0.508745 28,000 333 367 0
2019-07-14 14:58:24 GMT 52.540649 -0.504227 28,000 333 367 0
2019-07-14 14:58:21 GMT 52.537365 -0.501447 28,000 333 367 0
2019-07-14 14:58:18 GMT 52.530991 -0.495987 28,000 333 367 0
2019-07-14 14:58:15 GMT 52.527264 -0.492580 28,000 333 366 0
2019-07-14 14:58:12 GMT 52.523262 -0.489049 28,000 333 365 64
2019-07-14 14:58:09 GMT 52.519398 -0.485831 28,000 333 366 0
2019-07-14 14:58:06 GMT 52.514042 -0.481201 28,000 333 366 0
2019-07-14 14:58:03 GMT 52.508877 -0.476885 28,025 333 364 0
2019-07-14 14:58:00 GMT 52.506500 -0.474845 28,000 333 367 0
2019-07-14 14:57:57 GMT 52.499268 -0.468674 28,000 333 366 0
2019-07-14 14:57:54 GMT 52.496155 -0.466080 28,000 333 366 -64
2019-07-14 14:57:51 GMT 52.488487 -0.459542 28,000 333 366 0
2019-07-14 14:57:45 GMT 52.483109 -0.454941 28,025 333 366 0
2019-07-14 14:57:42 GMT 52.472260 -0.445633 28,025 333 366 0
2019-07-14 14:57:39 GMT 52.472260 -0.445633 28,025 333 365 64
2019-07-14 14:57:36 GMT 52.469028 -0.442906 28,025 333 365 64
2019-07-14 14:57:33 GMT 52.464420 -0.438982 28,000 333 365 0
2019-07-14 14:57:30 GMT 52.459763 -0.435059 28,000 333 366 0
2019-07-14 14:57:27 GMT 52.454597 -0.430507 28,000 333 366 0
2019-07-14 14:57:24 GMT 52.447037 -0.423813 28,025 333 366 -64
2019-07-14 14:57:18 GMT 52.441654 -0.419364 28,000 333 366 0
2019-07-14 14:57:15 GMT 52.436600 -0.414963 28,000 333 365 64
2019-07-14 14:57:12 GMT 52.428341 -0.407671 28,025 333 364 0
2019-07-14 14:57:09 GMT 52.428341 -0.407671 28,025 333 365 0
2019-07-14 14:57:06 GMT 52.423691 -0.403900 28,025 333 365 0
2019-07-14 14:57:03 GMT 52.419250 -0.400009 28,000 333 365 0
2019-07-14 14:56:59 GMT 52.408417 -0.390721 28,000 333 365 64
2019-07-14 14:56:56 GMT 52.408417 -0.390721 28,000 333 365 64
2019-07-14 14:56:53 GMT 52.403435 -0.386405 28,000 333 365 64
2019-07-14 14:56:50 GMT 52.399109 -0.382614 28,000 333 364 0
2019-07-14 14:56:47 GMT 52.394356 -0.378557 28,000 333 365 0
2019-07-14 14:56:44 GMT 52.391968 -0.376663 28,000 333 365 0
2019-07-14 14:56:41 GMT 52.385605 -0.371170 28,000 333 364 0
2019-07-14 14:56:38 GMT 52.382534 -0.368591 28,000 333 364 0
2019-07-14 14:56:35 GMT 52.372711 -0.360116 28,000 333 364 0
2019-07-14 14:56:32 GMT 52.372711 -0.360116 28,000 333 364 0
2019-07-14 14:56:29 GMT 52.367752 -0.355911 28,000 333 364 0
2019-07-14 14:56:26 GMT 52.364285 -0.352897 28,000 333 364 0
2019-07-14 14:56:23 GMT 52.360382 -0.349503 28,000 333 364 0
2019-07-14 14:56:20 GMT 52.355896 -0.345764 28,000 333 364 0
2019-07-14 14:56:17 GMT 52.345459 -0.336838 28,000 333 364 0
2019-07-14 14:56:11 GMT 52.341614 -0.333481 28,000 333 364 -64
2019-07-14 14:56:08 GMT 52.338547 -0.330963 28,000 333 364 -64
2019-07-14 14:56:05 GMT 52.332504 -0.325775 28,000 333 364 0
2019-07-14 14:56:02 GMT 52.328953 -0.322920 28,000 333 364 64
2019-07-14 14:55:59 GMT 52.323132 -0.317897 28,000 333 364 64
2019-07-14 14:55:56 GMT 52.320328 -0.315475 28,000 333 364 0
2019-07-14 14:55:53 GMT 52.315704 -0.311584 28,000 333 364 64
2019-07-14 14:55:50 GMT 52.305443 -0.302830 28,000 333 364 0
2019-07-14 14:55:47 GMT 52.305443 -0.302830 28,000 333 364 0
2019-07-14 14:55:44 GMT 52.302277 -0.300241 28,000 333 364 0
2019-07-14 14:55:41 GMT 52.296970 -0.295768 28,000 333 365 0
2019-07-14 14:55:38 GMT 52.292587 -0.291824 28,000 333 364 0
2019-07-14 14:55:35 GMT 52.283066 -0.283737 28,000 333 364 0
2019-07-14 14:55:29 GMT 52.278625 -0.279999 28,000 333 365 0
2019-07-14 14:55:26 GMT 52.273865 -0.276031 28,000 333 365 0
2019-07-14 14:55:23 GMT 52.265076 -0.268478 28,000 333 365 0
2019-07-14 14:55:20 GMT 52.265076 -0.268478 28,025 333 364 0
2019-07-14 14:55:17 GMT 52.257259 -0.261867 28,000 333 365 0
2019-07-14 14:55:14 GMT 52.257259 -0.261867 28,000 333 365 0
2019-07-14 14:55:11 GMT 52.253265 -0.258408 28,000 333 365 0
2019-07-14 14:55:08 GMT 52.248791 -0.254569 28,000 333 365 -64
2019-07-14 14:55:05 GMT 52.242317 -0.249154 28,025 333 365 0
2019-07-14 14:55:02 GMT 52.233192 -0.241228 28,025 333 365 0
2019-07-14 14:54:59 GMT 52.233192 -0.241228 28,025 333 365 0
2019-07-14 14:54:53 GMT 52.224930 -0.234375 28,025 333 365 0
2019-07-14 14:54:50 GMT 52.221680 -0.231400 28,025 333 365 0
2019-07-14 14:54:47 GMT 52.215645 -0.226240 28,025 333 365 0
2019-07-14 14:54:44 GMT 52.212013 -0.223336 28,025 333 365 64
2019-07-14 14:54:41 GMT 52.207729 -0.219570 28,025 333 365 64
2019-07-14 14:54:38 GMT 52.198372 -0.211487 28,025 333 365 64
2019-07-14 14:54:32 GMT 52.189713 -0.204267 28,000 333 365 64
2019-07-14 14:54:26 GMT 52.185654 -0.200729 28,000 333 365 64
2019-07-14 14:54:23 GMT 52.179752 -0.195635 28,000 333 366 0
2019-07-14 14:54:20 GMT 52.174301 -0.191040 28,000 333 365 0
2019-07-14 14:54:17 GMT 52.170502 -0.187836 28,000 333 366 -64
2019-07-14 14:54:14 GMT 52.168114 -0.185747 28,000 333 366 -64
2019-07-14 14:54:11 GMT 52.163635 -0.181961 28,000 333 366 -64
2019-07-14 14:54:08 GMT 52.158142 -0.177307 28,025 333 365 -64
2019-07-14 14:54:05 GMT 52.152649 -0.172653 28,025 333 363 0
2019-07-14 14:54:02 GMT 52.148575 -0.169296 28,025 333 365 0
2019-07-14 14:53:59 GMT 52.143253 -0.164873 28,025 333 363 0
2019-07-14 14:53:56 GMT 52.139145 -0.161362 28,025 333 364 0
2019-07-14 14:53:53 GMT 52.134476 -0.157471 28,025 333 364 0
2019-07-14 14:53:50 GMT 52.131546 -0.155029 28,025 333 364 0
2019-07-14 14:53:47 GMT 52.125046 -0.149536 28,000 333 364 0
2019-07-14 14:53:44 GMT 52.120377 -0.145569 28,000 333 364 0
2019-07-14 14:53:41 GMT 52.115891 -0.141907 28,025 333 364 0
2019-07-14 14:53:38 GMT 52.112808 -0.139369 28,025 333 363 0
2019-07-14 14:53:35 GMT 52.107651 -0.134888 28,025 333 364 0
2019-07-14 14:53:32 GMT 52.100143 -0.128632 28,025 333 363 0
2019-07-14 14:53:26 GMT 52.094280 -0.123596 28,025 333 363 0
2019-07-14 14:53:23 GMT 52.090622 -0.120621 28,025 333 363 0
2019-07-14 14:53:20 GMT 52.085312 -0.116196 28,025 333 363 0
2019-07-14 14:53:17 GMT 52.079865 -0.111771 28,000 333 362 0
2019-07-14 14:53:14 GMT 52.072636 -0.105704 28,000 333 362 0
2019-07-14 14:53:11 GMT 52.067841 -0.101780 28,000 333 363 0
2019-07-14 14:53:08 GMT 52.063370 -0.097857 28,000 333 363 0
2019-07-14 14:53:05 GMT 52.059647 -0.094796 28,000 333 363 0
2019-07-14 14:53:02 GMT 52.054153 -0.090166 28,000 333 362 0
2019-07-14 14:52:59 GMT 52.054153 -0.090166 28,000 333 362 0
2019-07-14 14:52:56 GMT 52.049240 -0.086060 28,000 333 362 0
2019-07-14 14:52:53 GMT 52.044754 -0.082245 28,025 333 363 0
2019-07-14 14:52:50 GMT 52.041584 -0.079651 28,000 333 362 0
2019-07-14 14:52:47 GMT 52.036331 -0.075226 28,000 333 363 0
2019-07-14 14:52:44 GMT 52.031109 -0.070705 28,000 333 363 0
2019-07-14 14:52:41 GMT 52.027107 -0.067409 28,000 333 363 0
2019-07-14 14:52:38 GMT 52.022186 -0.063171 28,000 333 363 0
2019-07-14 14:52:35 GMT 52.019073 -0.060577 28,000 333 363 0
2019-07-14 14:52:32 GMT 52.013214 -0.055618 28,000 333 363 0
2019-07-14 14:52:29 GMT 52.009964 -0.053024 28,000 333 363 0
2019-07-14 14:52:26 GMT 52.005569 -0.049133 28,000 333 362 0
2019-07-14 14:52:23 GMT 51.997032 -0.041905 28,000 333 362 0
2019-07-14 14:52:17 GMT 51.990921 -0.036850 28,000 333 362 0
2019-07-14 14:52:14 GMT 51.986435 -0.033112 28,025 333 362 0
2019-07-14 14:52:11 GMT 51.983067 -0.030212 28,025 333 363 0
2019-07-14 14:52:08 GMT 51.978600 -0.026446 28,000 333 362 0
2019-07-14 14:52:05 GMT 51.974178 -0.022679 28,025 333 362 0
2019-07-14 14:52:02 GMT 51.968582 -0.018158 28,025 333 363 0
2019-07-14 14:51:59 GMT 51.963982 -0.014282 28,025 333 363 0
2019-07-14 14:51:56 GMT 51.960911 -0.011693 28,025 333 363 0
2019-07-14 14:51:53 GMT 51.956039 -0.007706 28,025 333 363 0
2019-07-14 14:51:50 GMT 51.950638 -0.003128 28,025 333 363 0
2019-07-14 14:51:47 GMT 51.946804 0.000157 28,025 333 364 64
2019-07-14 14:51:43 GMT 51.937042 0.008392 28,000 333 363 0
2019-07-14 14:51:40 GMT 51.937042 0.008392 28,025 333 363 -64
2019-07-14 14:51:37 GMT 51.932602 0.012207 28,000 333 365 64
2019-07-14 14:51:34 GMT 51.926414 0.017343 28,025 333 363 0
2019-07-14 14:51:31 GMT 51.922085 0.020952 28,025 333 364 64
2019-07-14 14:51:28 GMT 51.919014 0.023542 28,025 333 364 64
2019-07-14 14:51:25 GMT 51.914429 0.027390 28,000 333 364 0
2019-07-14 14:51:22 GMT 51.909424 0.031703 28,000 333 364 0
2019-07-14 14:51:19 GMT 51.900532 0.039315 28,000 333 363 0
2019-07-14 14:51:16 GMT 51.900532 0.039315 28,000 333 364 0
2019-07-14 14:51:13 GMT 51.896156 0.042768 28,000 333 364 0
2019-07-14 14:51:10 GMT 51.891541 0.046692 28,000 333 363 0
2019-07-14 14:51:07 GMT 51.886753 0.050659 28,000 333 364 0
2019-07-14 14:51:04 GMT 51.883820 0.053177 28,000 333 364 64
2019-07-14 14:51:01 GMT 51.877991 0.058049 28,000 333 364 0
2019-07-14 14:50:58 GMT 51.868057 0.066438 28,000 333 364 64
2019-07-14 14:50:55 GMT 51.866501 0.067596 28,000 333 364 64
2019-07-14 14:50:49 GMT 51.859707 0.073242 28,000 333 367 0
2019-07-14 14:50:46 GMT 51.855560 0.076828 28,000 333 365 0
2019-07-14 14:50:43 GMT 51.850891 0.080690 28,000 333 365 0
2019-07-14 14:50:40 GMT 51.846954 0.083956 28,000 333 366 0
2019-07-14 14:50:37 GMT 51.843643 0.086670 28,000 333 366 0
2019-07-14 14:50:34 GMT 51.837639 0.091705 28,000 333 366 0
2019-07-14 14:50:31 GMT 51.833870 0.094910 28,000 333 366 0
2019-07-14 14:50:28 GMT 51.829559 0.098357 28,000 333 367 0
2019-07-14 14:50:25 GMT 51.823563 0.103331 28,000 333 368 -64
2019-07-14 14:50:22 GMT 51.819489 0.106746 28,000 333 367 0
2019-07-14 14:50:19 GMT 51.814877 0.110550 28,000 333 367 0
2019-07-14 14:50:16 GMT 51.810471 0.114169 28,000 333 368 -64
2019-07-14 14:50:13 GMT 51.804726 0.119095 28,000 333 368 -64
2019-07-14 14:50:10 GMT 51.801327 0.121841 28,000 333 368 -64
2019-07-14 14:50:07 GMT 51.797649 0.124969 28,000 333 368 -64
2019-07-14 14:50:04 GMT 51.788223 0.132652 28,025 333 368 0
2019-07-14 14:49:58 GMT 51.783554 0.136661 28,025 333 369 0
2019-07-14 14:49:55 GMT 51.778290 0.141115 28,025 333 369 -64
2019-07-14 14:49:52 GMT 51.773445 0.145035 28,025 333 369 -64
2019-07-14 14:49:49 GMT 51.769363 0.148464 28,025 333 368 0
2019-07-14 14:49:46 GMT 51.760689 0.155716 28,025 333 368 0
2019-07-14 14:49:40 GMT 51.755127 0.160267 28,025 333 368 0
2019-07-14 14:49:37 GMT 51.751099 0.163651 28,025 333 368 64
2019-07-14 14:49:34 GMT 51.745789 0.168061 28,025 333 368 64
2019-07-14 14:49:31 GMT 51.738235 0.174222 28,025 333 368 0
2019-07-14 14:49:28 GMT 51.738235 0.174222 28,025 333 368 0
2019-07-14 14:49:25 GMT 51.733841 0.177786 28,025 333 368 0
2019-07-14 14:49:22 GMT 51.729492 0.181423 28,025 333 367 0
2019-07-14 14:49:19 GMT 51.724609 0.185547 28,000 333 367 0
2019-07-14 14:49:16 GMT 51.714741 0.193634 28,025 333 367 -64
2019-07-14 14:49:13 GMT 51.714741 0.193634 28,000 333 367 0
2019-07-14 14:49:10 GMT 51.705872 0.200946 28,000 333 367 64
2019-07-14 14:49:07 GMT 51.705872 0.200946 28,000 333 367 64
2019-07-14 14:49:04 GMT 51.702347 0.203989 28,000 333 367 0
2019-07-14 14:49:01 GMT 51.697376 0.207901 28,000 333 367 64
2019-07-14 14:48:58 GMT 51.691864 0.212526 28,000 333 367 0
2019-07-14 14:48:55 GMT 51.688534 0.215378 28,000 333 367 64
2019-07-14 14:48:52 GMT 51.682251 0.220617 28,000 333 367 64
2019-07-14 14:48:49 GMT 51.679047 0.223141 28,000 333 367 64
2019-07-14 14:48:46 GMT 51.673737 0.227447 28,000 333 367 64
2019-07-14 14:48:43 GMT 51.668980 0.231552 28,000 333 367 0
2019-07-14 14:48:40 GMT 51.665535 0.234451 28,000 333 367 -64
2019-07-14 14:48:37 GMT 51.660461 0.238507 28,000 333 367 -64
2019-07-14 14:48:34 GMT 51.656570 0.241848 28,000 333 367 0
2019-07-14 14:48:31 GMT 51.651169 0.246227 28,025 333 366 -64
2019-07-14 14:48:28 GMT 51.646591 0.249939 28,000 333 367 0
2019-07-14 14:48:25 GMT 51.641655 0.254059 28,000 333 367 0
2019-07-14 14:48:22 GMT 51.638535 0.256620 28,000 333 367 0
2019-07-14 14:48:19 GMT 51.632854 0.261459 28,000 333 366 -64
2019-07-14 14:48:16 GMT 51.625175 0.267792 28,025 334 372 0
2019-07-14 14:48:13 GMT 51.625175 0.267792 28,025 333 366 0
2019-07-14 14:48:10 GMT 51.618301 0.273396 28,025 333 366 0
2019-07-14 14:48:07 GMT 51.616192 0.275192 28,025 333 366 0
2019-07-14 14:48:04 GMT 51.611164 0.279312 28,025 333 366 0
2019-07-14 14:48:01 GMT 51.605667 0.283966 28,025 333 366 0
2019-07-14 14:47:58 GMT 51.596786 0.291138 28,025 333 366 -64
2019-07-14 14:47:55 GMT 51.596786 0.291138 28,025 333 366 -64
2019-07-14 14:47:52 GMT 51.592541 0.294724 28,025 333 366 -64
2019-07-14 14:47:48 GMT 51.587219 0.299155 28,025 333 366 -64
2019-07-14 14:47:45 GMT 51.581650 0.303726 28,025 333 366 64
2019-07-14 14:47:41 GMT 51.575409 0.308953 28,025 333 366 64
2019-07-14 14:47:38 GMT 51.571175 0.312271 28,000 333 366 64
2019-07-14 14:47:35 GMT 51.567444 0.315560 28,000 333 366 0
2019-07-14 14:47:32 GMT 51.562702 0.319443 28,000 333 366 0
2019-07-14 14:47:28 GMT 51.556465 0.324631 28,025 333 366 -64
2019-07-14 14:47:25 GMT 51.551807 0.328369 28,025 333 366 -64
2019-07-14 14:47:22 GMT 51.548080 0.331446 28,025 333 367 0
2019-07-14 14:47:18 GMT 51.541306 0.337162 28,025 333 366 64
2019-07-14 14:47:15 GMT 51.537552 0.340279 28,025 333 366 0
2019-07-14 14:47:12 GMT 51.533794 0.343323 28,000 333 367 0
2019-07-14 14:47:09 GMT 51.527786 0.348282 28,000 333 367 0
2019-07-14 14:47:06 GMT 51.523865 0.351562 28,000 333 367 64
2019-07-14 14:47:03 GMT 51.519333 0.355200 28,000 333 367 0
2019-07-14 14:47:00 GMT 51.513382 0.360099 28,000 333 367 0
2019-07-14 14:46:57 GMT 51.508347 0.364108 28,000 333 367 0
2019-07-14 14:46:54 GMT 51.506046 0.366287 28,000 333 368 0
2019-07-14 14:46:51 GMT 51.501205 0.370102 28,000 333 368 0
2019-07-14 14:46:48 GMT 51.495850 0.374574 28,000 333 368 0
2019-07-14 14:46:45 GMT 51.491226 0.378360 28,000 333 368 0
2019-07-14 14:46:42 GMT 51.487335 0.381393 28,000 333 368 0
2019-07-14 14:46:39 GMT 51.481110 0.386600 28,000 333 369 0
2019-07-14 14:46:36 GMT 51.472900 0.393448 28,000 333 369 0
2019-07-14 14:46:33 GMT 51.472900 0.393448 28,000 333 369 0
2019-07-14 14:46:30 GMT 51.467926 0.397512 28,000 333 369 0
2019-07-14 14:46:27 GMT 51.464676 0.400110 28,000 333 370 0
2019-07-14 14:46:24 GMT 51.460007 0.403900 28,000 333 370 0
2019-07-14 14:46:21 GMT 51.453770 0.409088 28,000 333 370 0
2019-07-14 14:46:18 GMT 51.449860 0.412292 28,000 334 371 0
2019-07-14 14:46:15 GMT 51.445950 0.415421 28,000 334 371 0
2019-07-14 14:46:12 GMT 51.440922 0.419540 28,000 334 372 -64
2019-07-14 14:46:09 GMT 51.431534 0.427205 28,000 334 372 -64
2019-07-14 14:46:06 GMT 51.431534 0.427205 28,000 334 372 -64
2019-07-14 14:46:00 GMT 51.417801 0.438265 28,000 334 372 0
2019-07-14 14:45:57 GMT 51.413956 0.441383 28,025 334 373 0
2019-07-14 14:45:51 GMT 51.407684 0.446431 28,025 334 376 0
2019-07-14 14:45:48 GMT 51.404610 0.448837 28,025 334 373 0
2019-07-14 14:45:45 GMT 51.400589 0.452147 28,025 334 373 0
2019-07-14 14:45:42 GMT 51.394089 0.457306 28,025 334 373 0
2019-07-14 14:45:39 GMT 51.389420 0.460906 28,025 334 374 0
2019-07-14 14:45:36 GMT 51.381382 0.467300 28,025 334 374 64
2019-07-14 14:45:33 GMT 51.376400 0.471191 28,025 334 374 64
2019-07-14 14:45:30 GMT 51.376400 0.471191 28,000 334 375 64
2019-07-14 14:45:27 GMT 51.372299 0.474491 28,000 334 375 64
2019-07-14 14:45:24 GMT 51.367493 0.478276 28,000 334 375 64
2019-07-14 14:45:21 GMT 51.363327 0.481543 28,000 335 375 0
2019-07-14 14:45:18 GMT 51.357033 0.486298 28,000 335 375 0
2019-07-14 14:45:15 GMT 51.353073 0.489411 28,000 335 375 0
2019-07-14 14:45:12 GMT 51.348404 0.493049 28,000 335 375 0
2019-07-14 14:45:09 GMT 51.342087 0.497799 28,000 335 376 -64
2019-07-14 14:45:06 GMT 51.338459 0.500793 28,000 335 375 0
2019-07-14 14:45:03 GMT 51.333527 0.504480 28,000 335 376 0
2019-07-14 14:45:00 GMT 51.330231 0.506930 28,025 335 377 0
2019-07-14 14:44:57 GMT 51.324051 0.511532 28,000 335 377 -64
2019-07-14 14:44:54 GMT 51.316360 0.517545 28,025 335 376 -64
2019-07-14 14:44:48 GMT 51.310249 0.522079 28,000 335 376 -64
2019-07-14 14:44:45 GMT 51.304337 0.526505 28,025 335 376 -64
2019-07-14 14:44:42 GMT 51.300339 0.529422 28,025 335 375 64
2019-07-14 14:44:36 GMT 51.292282 0.535435 28,025 335 376 -64
2019-07-14 14:44:33 GMT 51.285950 0.540085 28,025 335 376 -64
2019-07-14 14:44:30 GMT 51.282688 0.542603 28,025 334 374 0
2019-07-14 14:44:27 GMT 51.272728 0.550156 28,025 335 375 64
2019-07-14 14:44:21 GMT 51.263947 0.556740 28,025 335 375 0
2019-07-14 14:44:18 GMT 51.263947 0.556740 28,000 334 375 0
2019-07-14 14:44:15 GMT 51.258484 0.560837 28,025 335 375 0
2019-07-14 14:44:12 GMT 51.254341 0.563889 28,000 335 374 64
2019-07-14 14:44:09 GMT 51.248840 0.568246 28,025 335 375 64
2019-07-14 14:44:06 GMT 51.244720 0.571289 28,000 335 374 64
2019-07-14 14:44:03 GMT 51.240417 0.574778 28,000 334 374 0
2019-07-14 14:44:00 GMT 51.235794 0.578341 28,000 334 374 0
2019-07-14 14:43:57 GMT 51.231812 0.581459 28,000 334 375 0
2019-07-14 14:43:54 GMT 51.222404 0.588989 28,000 333 374 -64
2019-07-14 14:43:51 GMT 51.222404 0.588989 28,000 333 374 -64
2019-07-14 14:43:48 GMT 51.215790 0.594598 28,025 332 375 0
2019-07-14 14:43:45 GMT 51.211651 0.598221 28,025 332 375 0
2019-07-14 14:43:42 GMT 51.204300 0.604693 28,025 329 375 0
2019-07-14 14:43:39 GMT 51.204300 0.604693 28,025 331 375 0
2019-07-14 14:43:36 GMT 51.198532 0.609890 28,025 330 375 0
2019-07-14 14:43:33 GMT 51.194752 0.613556 28,025 330 375 0
2019-07-14 14:43:30 GMT 51.191162 0.616942 28,025 329 375 0
2019-07-14 14:43:27 GMT 51.184799 0.623251 28,025 327 376 0
2019-07-14 14:43:24 GMT 51.181091 0.627186 28,025 327 376 0
2019-07-14 14:43:21 GMT 51.177246 0.631343 28,025 326 376 0
2019-07-14 14:43:17 GMT 51.169895 0.639343 28,025 324 377 0
2019-07-14 14:43:14 GMT 51.166821 0.642929 28,000 321 379 64
2019-07-14 14:43:11 GMT 51.157700 0.654429 28,000 321 379 0
2019-07-14 14:43:08 GMT 51.157700 0.654429 28,000 318 380 0
2019-07-14 14:43:05 GMT 51.155090 0.658264 28,000 316 382 0
2019-07-14 14:43:02 GMT 51.151154 0.663708 28,000 316 382 0
2019-07-14 14:42:58 GMT 51.144424 0.674397 28,000 313 385 -64
2019-07-14 14:42:55 GMT 51.141312 0.679932 28,000 309 386 0
2019-07-14 14:42:51 GMT 51.137169 0.687637 28,025 309 387 0
2019-07-14 14:42:47 GMT 51.132374 0.698090 28,000 306 388 0
2019-07-14 14:42:44 GMT 51.129860 0.703583 28,000 306 388 0
2019-07-14 14:42:41 GMT 51.126785 0.710449 28,025 306 388 0
2019-07-14 14:42:38 GMT 51.123138 0.718565 28,000 306 389 0
2019-07-14 14:42:35 GMT 51.120361 0.724640 28,000 306 389 128
2019-07-14 14:42:32 GMT 51.117599 0.730888 28,000 306 388 64
2019-07-14 14:42:29 GMT 51.113525 0.740241 28,000 306 389 128
2019-07-14 14:42:26 GMT 51.111603 0.744398 28,000 306 389 64
2019-07-14 14:42:23 GMT 51.108398 0.751801 28,000 306 389 64
2019-07-14 14:42:20 GMT 51.105789 0.757834 28,000 306 390 -64
2019-07-14 14:42:17 GMT 51.098949 0.772934 28,000 306 389 -64
2019-07-14 14:42:11 GMT 51.092056 0.788121 28,000 306 390 -64
2019-07-14 14:42:08 GMT 51.092056 0.788121 28,025 306 390 -64
2019-07-14 14:42:04 GMT 51.088428 0.796585 28,025 306 390 -64
2019-07-14 14:42:01 GMT 51.082657 0.809708 28,025 306 390 0
2019-07-14 14:41:55 GMT 51.078976 0.817566 28,025 306 390 0
2019-07-14 14:41:52 GMT 51.075905 0.824585 28,025 306 390 0
2019-07-14 14:41:49 GMT 51.068550 0.841293 28,025 306 390 0
2019-07-14 14:41:46 GMT 51.068550 0.841293 28,025 306 390 64
2019-07-14 14:41:43 GMT 51.066177 0.846786 28,025 306 390 0
2019-07-14 14:41:40 GMT 51.062531 0.854707 28,025 306 390 64
2019-07-14 14:41:36 GMT 51.059101 0.862274 28,025 306 390 64
2019-07-14 14:41:33 GMT 51.055527 0.870295 28,025 306 390 0
2019-07-14 14:41:30 GMT 51.053234 0.875549 28,025 306 390 0
2019-07-14 14:41:27 GMT 51.045368 0.892792 28,000 306 390 0
2019-07-14 14:41:23 GMT 51.045368 0.892792 28,000 306 390 0
2019-07-14 14:41:20 GMT 51.042107 0.900345 28,025 306 390 0
2019-07-14 14:41:16 GMT 51.038818 0.907486 28,025 306 390 0
2019-07-14 14:41:13 GMT 51.034882 0.916245 28,025 306 390 0
2019-07-14 14:41:10 GMT 51.030624 0.925747 28,025 306 390 0
2019-07-14 14:41:07 GMT 51.029572 0.928196 28,025 306 390 0
2019-07-14 14:41:04 GMT 51.025635 0.937104 28,000 306 390 0
2019-07-14 14:41:01 GMT 51.022888 0.943117 28,000 306 385 0
2019-07-14 14:40:58 GMT 51.018227 0.953445 28,000 306 390 64
2019-07-14 14:40:54 GMT 51.013943 0.962906 28,000 306 390 0
2019-07-14 14:40:51 GMT 51.011383 0.968704 28,000 306 390 0
2019-07-14 14:40:48 GMT 51.009010 0.974121 28,000 306 390 0
2019-07-14 14:40:45 GMT 51.006264 0.980148 28,000 306 390 -64
2019-07-14 14:40:40 GMT 51.000027 0.994110 28,025 306 390 -64
2019-07-14 14:40:37 GMT 50.996815 1.001053 28,025 306 390 0
2019-07-14 14:40:34 GMT 50.994904 1.005554 28,025 306 390 0
2019-07-14 14:40:31 GMT 50.991806 1.012672 28,025 306 390 0
2019-07-14 14:40:28 GMT 50.988052 1.021060 28,025 306 390 0
2019-07-14 14:40:25 GMT 50.985268 1.026993 28,000 306 390 0
2019-07-14 14:40:22 GMT 50.981171 1.036148 28,000 306 390 64
2019-07-14 14:40:19 GMT 50.978050 1.043243 28,000 306 390 0
2019-07-14 14:40:16 GMT 50.974823 1.050605 28,000 306 390 0
2019-07-14 14:40:13 GMT 50.971024 1.058844 28,025 306 390 0
2019-07-14 14:40:10 GMT 50.969997 1.061249 28,000 306 390 -64
2019-07-14 14:40:07 GMT 50.965897 1.070350 28,025 306 391 0
2019-07-14 14:40:04 GMT 50.962830 1.076965 28,025 306 391 0
2019-07-14 14:40:01 GMT 50.959579 1.084306 28,000 306 390 0
2019-07-14 14:39:58 GMT 50.956421 1.091432 28,025 306 392 64
2019-07-14 14:39:55 GMT 50.953674 1.097519 28,000 306 391 64
2019-07-14 14:39:52 GMT 50.949886 1.105957 28,000 306 391 64
2019-07-14 14:39:49 GMT 50.944302 1.118469 28,000 306 391 64
2019-07-14 14:39:43 GMT 50.941681 1.124466 28,000 306 391 -64
2019-07-14 14:39:40 GMT 50.937927 1.132780 28,000 306 392 -64
2019-07-14 14:39:37 GMT 50.934155 1.141205 28,025 306 392 -64
2019-07-14 14:39:33 GMT 50.931080 1.147842 28,025 306 391 0
2019-07-14 14:39:30 GMT 50.927124 1.156979 28,025 306 390 0
2019-07-14 14:39:27 GMT 50.923168 1.165619 28,025 306 390 0
2019-07-14 14:39:23 GMT 50.920048 1.172333 28,025 306 390 0
2019-07-14 14:39:20 GMT 50.917099 1.178878 28,025 306 389 0
2019-07-14 14:39:17 GMT 50.912476 1.189493 28,025 306 388 0
2019-07-14 14:39:14 GMT 50.911331 1.191868 28,025 306 389 0
2019-07-14 14:39:11 GMT 50.907059 1.201248 28,025 306 387 -64
2019-07-14 14:39:06 GMT 50.898914 1.219559 28,025 306 385 0
2019-07-14 14:39:00 GMT 50.895172 1.227722 28,025 306 385 -64
2019-07-14 14:38:56 GMT 50.891922 1.235220 28,025 306 385 0
2019-07-14 14:38:52 GMT 50.887802 1.244424 28,000 306 383 64
2019-07-14 14:38:49 GMT 50.885181 1.250076 28,025 306 383 64
2019-07-14 14:38:45 GMT 50.879883 1.261795 28,000 306 378 64
2019-07-14 14:38:42 GMT 50.876476 1.269455 28,025 306 381 64
2019-07-14 14:38:39 GMT 50.873497 1.276245 28,000 306 379 128
2019-07-14 14:38:35 GMT 50.870235 1.283264 28,000 306 379 128
2019-07-14 14:38:31 GMT 50.865097 1.294531 28,000 306 378 128
2019-07-14 14:38:27 GMT 50.862076 1.301212 28,000 307 376 640
2019-07-14 14:38:23 GMT 50.858093 1.309823 27,975 307 376 192
2019-07-14 14:38:20 GMT 50.854969 1.316605 27,975 307 375 320
2019-07-14 14:38:17 GMT 50.851707 1.323471 27,950 307 375 640
2019-07-14 14:38:14 GMT 50.845551 1.336843 27,900 307 375 640
2019-07-14 14:38:11 GMT 50.845551 1.336843 27,875 309 374 512
2019-07-14 14:38:08 GMT 50.842304 1.343460 27,750 310 373 384
2019-07-14 14:38:02 GMT 50.836945 1.354362 27,775 316 369 448
2019-07-14 14:37:59 GMT 50.832344 1.362381 27,775 316 369 448
2019-07-14 14:37:56 GMT 50.827084 1.370392 27,775 319 368 704
2019-07-14 14:37:53 GMT 50.824848 1.373520 27,725 319 368 704
2019-07-14 14:37:50 GMT 50.821060 1.379007 27,650 319 368 704
2019-07-14 14:37:47 GMT 50.816608 1.385193 27,475 319 368 896
2019-07-14 14:37:44 GMT 50.813965 1.388880 27,625 319 368 960
2019-07-14 14:37:41 GMT 50.810043 1.394501 26,850 318 370 640
2019-07-14 14:37:38 GMT 50.801422 1.406770 27,500 319 369 896
2019-07-14 14:37:35 GMT 50.801422 1.406770 27,500 319 369 704
2019-07-14 14:37:32 GMT 50.799408 1.409590 27,450 318 370 576
2019-07-14 14:37:28 GMT 50.793594 1.418053 27,350 318 370 640
2019-07-14 14:37:24 GMT 50.787506 1.426515 27,350 318 370 576
2019-07-14 14:37:21 GMT 50.784302 1.431043 27,100 318 370 640
2019-07-14 14:37:17 GMT 50.780365 1.436759 27,300 318 370 640
2019-07-14 14:37:14 GMT 50.771221 1.449661 27,225 318 370 640
2019-07-14 14:37:11 GMT 50.771221 1.449661 27,225 318 370 640
2019-07-14 14:37:08 GMT 50.767265 1.455307 27,225 319 370 704
2019-07-14 14:37:04 GMT 50.761322 1.463706 27,050 340 363 768
2019-07-14 14:37:00 GMT 50.755299 1.472092 27,125 319 370 704
2019-07-14 14:36:57 GMT 50.753952 1.473950 27,075 319 370 704
2019-07-14 14:36:54 GMT 50.749992 1.479645 27,025 319 371 704
2019-07-14 14:36:51 GMT 50.746037 1.485138 27,000 319 371 704
2019-07-14 14:36:48 GMT 50.741959 1.490949 26,875 339 362 0
2019-07-14 14:36:45 GMT 50.738617 1.495625 26,875 319 371 576
2019-07-14 14:36:42 GMT 50.733490 1.502677 26,900 319 371 576
2019-07-14 14:36:37 GMT 50.726944 1.511956 26,825 319 371 576
2019-07-14 14:36:34 GMT 50.723694 1.516262 26,700 324 369 832
2019-07-14 14:36:30 GMT 50.712749 1.531296 26,775 320 370 512
2019-07-14 14:36:26 GMT 50.712749 1.531296 26,700 320 370 576
2019-07-14 14:36:22 GMT 50.709595 1.535636 26,700 320 370 448
2019-07-14 14:36:18 GMT 50.703140 1.544173 26,700 320 370 512
2019-07-14 14:36:15 GMT 50.698181 1.550980 26,675 320 370 576
2019-07-14 14:36:11 GMT 50.688354 1.564141 26,525 320 369 640
2019-07-14 14:36:07 GMT 50.688354 1.564141 26,575 321 370 704
2019-07-14 14:36:03 GMT 50.684448 1.569214 26,525 321 370 704
2019-07-14 14:35:59 GMT 50.679234 1.576004 25,950 325 368 832
2019-07-14 14:35:56 GMT 50.673229 1.583557 26,275 323 369 832
2019-07-14 14:35:53 GMT 50.668991 1.588681 26,375 324 369 832
2019-07-14 14:35:50 GMT 50.666527 1.591459 26,375 325 368 832
2019-07-14 14:35:47 GMT 50.661125 1.597546 26,275 339 362 896
2019-07-14 14:35:43 GMT 50.656750 1.602297 26,250 327 366 768
2019-07-14 14:35:37 GMT 50.648930 1.610165 26,150 339 362 896
2019-07-14 14:35:33 GMT 50.635521 1.622191 26,100 333 364 640
2019-07-14 14:35:29 GMT 50.635521 1.622191 26,100 333 364 640
2019-07-14 14:35:24 GMT 50.629517 1.627164 26,075 339 362 896
2019-07-14 14:35:21 GMT 50.624680 1.630819 25,825 339 361 704
2019-07-14 14:35:17 GMT 50.617538 1.636096 25,850 337 362 704
2019-07-14 14:35:12 GMT 50.610489 1.640721 25,775 338 361 704
2019-07-14 14:35:09 GMT 50.606506 1.643396 25,800 339 361 704
2019-07-14 14:35:06 GMT 50.595291 1.650045 25,750 339 362 896
2019-07-14 14:35:03 GMT 50.595291 1.650045 25,625 339 362 576
2019-07-14 14:35:00 GMT 50.590504 1.652997 24,425 339 362 896
2019-07-14 14:34:57 GMT 50.582520 1.657779 25,525 339 362 896
2019-07-14 14:34:54 GMT 50.582520 1.657779 25,550 340 363 832
2019-07-14 14:34:51 GMT 50.577564 1.660791 25,600 340 363 832
2019-07-14 14:34:47 GMT 50.566177 1.667754 25,525 340 363 768
2019-07-14 14:34:44 GMT 50.566177 1.667754 25,500 339 362 640
2019-07-14 14:34:41 GMT 50.561920 1.670283 25,425 339 367 832
2019-07-14 14:34:38 GMT 50.556152 1.673753 25,400 339 362 512
2019-07-14 14:34:33 GMT 50.548328 1.678533 25,375 339 362 512
2019-07-14 14:34:30 GMT 50.539017 1.684026 25,350 339 362 512
2019-07-14 14:34:27 GMT 50.539017 1.684026 25,200 340 363 768
2019-07-14 14:34:19 GMT 50.528030 1.690781 25,275 339 362 640
2019-07-14 14:34:13 GMT 50.518581 1.696571 25,175 339 362 832
2019-07-14 14:34:09 GMT 50.512619 1.700207 25,125 340 363 640
2019-07-14 14:34:06 GMT 50.506477 1.703920 24,975 340 363 832
2019-07-14 14:34:02 GMT 50.501495 1.706856 25,050 340 363 640
2019-07-14 14:33:59 GMT 50.496609 1.709784 25,000 340 363 640
2019-07-14 14:33:53 GMT 50.488129 1.714879 24,550 339 365 1024
2019-07-14 14:33:50 GMT 50.478222 1.720771 24,925 340 363 704
2019-07-14 14:33:47 GMT 50.478222 1.720771 24,075 339 367 832
2019-07-14 14:33:43 GMT 50.471191 1.725076 24,325 339 363 1024
2019-07-14 14:33:39 GMT 50.457970 1.733167 24,550 339 365 960
2019-07-14 14:33:35 GMT 50.457970 1.733167 24,625 339 366 896
2019-07-14 14:33:29 GMT 50.448521 1.738809 24,475 339 366 896
2019-07-14 14:33:26 GMT 50.440292 1.743935 24,400 339 366 896
2019-07-14 14:33:23 GMT 50.440292 1.743935 24,475 339 366 896
2019-07-14 14:33:20 GMT 50.435715 1.746682 24,450 339 366 896
2019-07-14 14:33:17 GMT 50.431297 1.749573 24,350 339 367 832
2019-07-14 14:33:14 GMT 50.419052 1.756996 24,350 339 367 832
2019-07-14 14:33:10 GMT 50.419052 1.756996 23,950 340 369 448
2019-07-14 14:33:07 GMT 50.415329 1.759371 24,075 339 367 832
2019-07-14 14:33:02 GMT 50.407043 1.764345 24,150 339 368 832
2019-07-14 14:32:59 GMT 50.401749 1.767642 23,950 340 369 448
2019-07-14 14:32:56 GMT 50.397217 1.770389 24,050 339 368 896
2019-07-14 14:32:53 GMT 50.393417 1.772630 23,950 340 369 448
2019-07-14 14:32:49 GMT 50.385536 1.777632 23,975 340 369 896
2019-07-14 14:32:46 GMT 50.381111 1.780156 23,950 340 369 896
2019-07-14 14:32:43 GMT 50.375519 1.783544 23,900 340 369 832
2019-07-14 14:32:39 GMT 50.370255 1.786724 23,775 339 366 576
2019-07-14 14:32:36 GMT 50.358627 1.793590 23,775 340 369 768
2019-07-14 14:32:33 GMT 50.358627 1.793590 23,700 339 366 512
2019-07-14 14:32:29 GMT 50.348740 1.799517 23,700 340 369 512
2019-07-14 14:32:26 GMT 50.342613 1.803168 23,700 340 369 448
2019-07-14 14:32:22 GMT 50.342613 1.803168 23,600 339 367 512
2019-07-14 14:32:18 GMT 50.336288 1.807106 23,550 340 350 768
2019-07-14 14:32:14 GMT 50.325809 1.813338 23,575 339 367 384
2019-07-14 14:32:11 GMT 50.325809 1.813338 23,550 339 367 384
2019-07-14 14:32:06 GMT 50.317196 1.818683 23,525 339 366 384
2019-07-14 14:32:00 GMT 50.308456 1.823947 23,350 339 365 640
2019-07-14 14:31:57 GMT 50.303192 1.827200 23,350 339 365 640
2019-07-14 14:31:54 GMT 50.298111 1.830114 23,400 339 365 640
2019-07-14 14:31:49 GMT 50.288754 1.835756 23,375 341 363 576
2019-07-14 14:31:44 GMT 50.283169 1.839171 23,300 340 364 512
2019-07-14 14:31:41 GMT 50.278152 1.842161 23,050 341 363 512
2019-07-14 14:31:37 GMT 50.271809 1.845852 23,225 341 363 512
2019-07-14 14:31:34 GMT 50.265518 1.849389 23,150 341 363 512
2019-07-14 14:31:28 GMT 50.257702 1.853794 23,150 341 363 576
2019-07-14 14:31:25 GMT 50.252861 1.856615 23,075 341 363 640
2019-07-14 14:31:21 GMT 50.246384 1.860159 23,075 341 361 640
2019-07-14 14:31:18 GMT 50.239826 1.863816 23,050 341 361 576
2019-07-14 14:31:14 GMT 50.235077 1.866488 23,025 341 362 640
2019-07-14 14:31:10 GMT 50.227524 1.870639 22,950 340 359 640
2019-07-14 14:31:07 GMT 50.222462 1.873392 22,950 341 361 576
2019-07-14 14:31:03 GMT 50.211731 1.879385 22,875 341 360 640
2019-07-14 14:31:00 GMT 50.211731 1.879385 22,875 340 359 640
2019-07-14 14:30:56 GMT 50.205517 1.883116 22,575 339 359 768
2019-07-14 14:30:50 GMT 50.197605 1.887793 22,775 339 358 704
2019-07-14 14:30:44 GMT 50.187881 1.893407 22,675 340 359 704
2019-07-14 14:30:41 GMT 50.183853 1.895864 22,475 339 359 832
2019-07-14 14:30:37 GMT 50.171860 1.903084 22,500 339 359 832
2019-07-14 14:30:34 GMT 50.171860 1.903084 22,500 340 350 768
2019-07-14 14:30:27 GMT 50.162796 1.908513 22,400 339 359 896
2019-07-14 14:30:24 GMT 50.157104 1.911844 22,225 339 360 704
2019-07-14 14:30:17 GMT 50.146862 1.918154 22,300 339 358 704
2019-07-14 14:30:14 GMT 50.140064 1.922162 22,300 339 358 704
2019-07-14 14:30:10 GMT 50.136017 1.924703 21,900 339 356 832
2019-07-14 14:30:06 GMT 50.130009 1.928101 22,150 339 356 1344
2019-07-14 14:30:03 GMT 50.119675 1.934336 22,150 339 357 640
2019-07-14 14:29:56 GMT 50.113495 1.938220 22,125 339 357 896
2019-07-14 14:29:53 GMT 50.109741 1.940532 21,975 339 357 896
2019-07-14 14:29:50 GMT 50.103836 1.944146 22,000 339 356 896
2019-07-14 14:29:44 GMT 50.086899 1.954410 21,850 339 356 832
2019-07-14 14:29:39 GMT 50.086899 1.954410 21,850 339 356 896
2019-07-14 14:29:34 GMT 50.080338 1.958387 21,750 339 356 832
2019-07-14 14:29:31 GMT 50.076427 1.960763 21,725 339 356 1152
2019-07-14 14:29:28 GMT 50.070099 1.964548 21,700 339 356 960
2019-07-14 14:29:22 GMT 50.061447 1.969878 21,575 339 357 1344
2019-07-14 14:29:18 GMT 50.054085 1.974347 21,425 339 357 1280
2019-07-14 14:29:13 GMT 50.047989 1.978045 20,875 339 356 640
2019-07-14 14:29:09 GMT 50.041580 1.981876 21,350 340 355 640
2019-07-14 14:29:06 GMT 50.036114 1.985111 19,475 341 342 768
2019-07-14 14:29:01 GMT 50.030136 1.988742 21,300 339 355 640
2019-07-14 14:28:58 GMT 50.022987 1.992905 21,100 340 353 768
2019-07-14 14:28:55 GMT 50.019241 1.995103 21,225 340 355 768
2019-07-14 14:28:51 GMT 50.014793 1.997656 21,100 340 353 768
2019-07-14 14:28:47 GMT 50.008072 2.001825 21,100 340 353 832
2019-07-14 14:28:44 GMT 50.002457 2.004856 21,050 340 353 832
2019-07-14 14:28:40 GMT 49.995102 2.009310 20,700 340 349 960
2019-07-14 14:28:35 GMT 49.989075 2.012956 20,875 340 351 832
2019-07-14 14:28:32 GMT 49.984680 2.015558 20,700 340 350 832
2019-07-14 14:28:28 GMT 49.978947 2.018738 20,850 340 351 832
2019-07-14 14:28:25 GMT 49.974247 2.021559 20,825 340 350 832
2019-07-14 14:28:21 GMT 49.962421 2.028388 20,700 341 342 768
2019-07-14 14:28:18 GMT 49.962421 2.028388 20,625 340 349 768
2019-07-14 14:28:15 GMT 49.955624 2.032322 20,650 340 349 768
2019-07-14 14:28:11 GMT 49.951389 2.034920 20,650 340 349 768
2019-07-14 14:28:02 GMT 49.936981 2.043168 20,475 340 349 1024
2019-07-14 14:27:58 GMT 49.933979 2.045016 20,450 340 349 960
2019-07-14 14:27:53 GMT 49.926361 2.049384 19,925 341 345 768
2019-07-14 14:27:50 GMT 49.921085 2.052439 20,125 340 347 832
2019-07-14 14:27:44 GMT 49.912846 2.057041 20,225 341 346 832
2019-07-14 14:27:40 GMT 49.906326 2.060679 20,075 341 345 832
2019-07-14 14:27:37 GMT 49.897667 2.065504 20,100 341 345 832
2019-07-14 14:27:31 GMT 49.892532 2.068393 20,050 341 344 832
2019-07-14 14:27:28 GMT 49.887955 2.070995 20,000 341 343 832
2019-07-14 14:27:24 GMT 49.882584 2.073892 19,725 341 340 896
2019-07-14 14:27:17 GMT 49.871925 2.079756 19,875 341 340 704
2019-07-14 14:27:14 GMT 49.861076 2.085769 19,725 341 340 896
2019-07-14 14:27:07 GMT 49.857307 2.087848 19,750 341 339 1088
2019-07-14 14:27:02 GMT 49.850464 2.091450 19,550 341 340 1152
2019-07-14 14:26:58 GMT 49.836960 2.098750 18,650 341 340 1152
2019-07-14 14:26:53 GMT 49.836960 2.098750 19,450 341 339 1152
2019-07-14 14:26:50 GMT 49.831097 2.102100 19,375 341 339 1024
2019-07-14 14:26:42 GMT 49.814117 2.111110 19,250 340 341 1536
2019-07-14 14:26:38 GMT 49.814117 2.111110 19,175 341 339 1152
2019-07-14 14:26:32 GMT 49.802982 2.117318 19,000 341 339 1536
2019-07-14 14:26:26 GMT 49.787521 2.125927 18,650 340 342 1024
2019-07-14 14:26:21 GMT 49.787521 2.125927 18,750 340 342 1024
2019-07-14 14:26:18 GMT 49.779610 2.130531 18,450 339 341 1024
2019-07-14 14:26:15 GMT 49.772049 2.135178 18,450 339 341 1024
2019-07-14 14:26:10 GMT 49.768936 2.137058 18,525 338 341 1024
2019-07-14 14:26:07 GMT 49.768936 2.137058 18,525 338 342 1024
2019-07-14 14:25:59 GMT 49.756302 2.145587 18,375 336 341 1024
2019-07-14 14:25:56 GMT 49.752937 2.148050 18,350 336 340 1024
2019-07-14 14:25:49 GMT 49.741333 2.156573 18,150 313 344 1536
2019-07-14 14:25:45 GMT 49.737247 2.160001 18,125 332 340 1024
2019-07-14 14:25:41 GMT 49.730221 2.165643 18,025 326 341 896
2019-07-14 14:25:38 GMT 49.726215 2.169280 18,000 329 341 960
2019-07-14 14:25:34 GMT 49.720863 2.174254 17,925 327 341 960
2019-07-14 14:25:29 GMT 49.707500 2.188284 17,750 326 341 896
2019-07-14 14:25:25 GMT 49.705219 2.190882 17,725 321 342 1024
2019-07-14 14:25:18 GMT 49.700546 2.196904 17,650 312 346 1408
2019-07-14 14:25:13 GMT 49.694870 2.205144 17,600 312 346 1344
2019-07-14 14:25:09 GMT 49.690247 2.212372 17,475 313 344 1536
2019-07-14 14:25:06 GMT 49.687160 2.217605 17,475 313 344 1536
2019-07-14 14:25:02 GMT 49.680817 2.228851 17,350 312 346 1408
2019-07-14 14:24:59 GMT 49.679672 2.230731 17,275 313 344 1536
2019-07-14 14:24:55 GMT 49.676010 2.237019 17,200 312 346 1472
2019-07-14 14:24:50 GMT 49.668640 2.249523 17,025 312 346 1472
2019-07-14 14:24:47 GMT 49.660904 2.263109 16,125 313 344 1472
2019-07-14 14:24:42 GMT 49.660904 2.263109 16,875 312 345 1344
2019-07-14 14:24:36 GMT 49.650467 2.281109 16,125 313 344 1472
2019-07-14 14:24:29 GMT 49.646896 2.287108 16,600 313 344 1664
2019-07-14 14:24:26 GMT 49.644238 2.291614 16,375 313 344 1664
2019-07-14 14:24:19 GMT 49.637100 2.303732 16,075 313 344 1472
2019-07-14 14:24:15 GMT 49.632740 2.310915 16,225 313 344 1472
2019-07-14 14:24:12 GMT 49.628174 2.318477 16,100 313 344 1472
2019-07-14 14:24:09 GMT 49.625931 2.322091 16,050 313 343 1472
2019-07-14 14:24:04 GMT 49.618011 2.335390 15,900 314 344 1344
2019-07-14 14:24:00 GMT 49.616352 2.338232 15,850 314 343 1344
2019-07-14 14:23:55 GMT 49.611652 2.345878 15,750 314 343 1664
2019-07-14 14:23:52 GMT 49.606205 2.354563 15,625 315 342 1600
2019-07-14 14:23:49 GMT 49.605042 2.356419 15,525 315 342 1600
2019-07-14 14:23:44 GMT 49.599289 2.364952 15,475 321 339 1152
2019-07-14 14:23:40 GMT 49.592102 2.374203 15,350 321 339 1088
2019-07-14 14:23:37 GMT 49.590935 2.375719 15,325 323 337 1280
2019-07-14 14:23:34 GMT 49.586514 2.380841 15,275 324 336 1344
2019-07-14 14:23:30 GMT 49.579063 2.389304 15,100 324 335 1408
2019-07-14 14:23:26 GMT 49.576126 2.392779 15,050 324 335 1408
2019-07-14 14:23:23 GMT 49.573242 2.396176 15,000 324 335 1408
2019-07-14 14:23:16 GMT 49.563423 2.407416 14,825 324 333 1536
2019-07-14 14:23:13 GMT 49.560699 2.410415 14,750 324 333 1536
2019-07-14 14:23:04 GMT 49.549850 2.422919 14,475 324 331 1536
2019-07-14 14:23:01 GMT 49.545918 2.427310 14,375 324 331 1664
2019-07-14 14:22:57 GMT 49.541264 2.432655 14,225 324 330 1472
2019-07-14 14:22:53 GMT 49.533722 2.441043 14,175 324 330 1472
2019-07-14 14:22:43 GMT 49.523575 2.452549 13,900 325 329 1600
2019-07-14 14:22:40 GMT 49.519291 2.457152 13,900 325 329 1664
2019-07-14 14:22:37 GMT 49.515705 2.461234 13,825 325 328 1664
2019-07-14 14:22:33 GMT 49.509933 2.467544 13,700 335 321 1664
2019-07-14 14:22:30 GMT 49.508026 2.469623 13,625 325 327 1728
2019-07-14 14:22:26 GMT 49.502670 2.475487 13,525 326 328 1792
2019-07-14 14:22:20 GMT 49.492710 2.486028 13,325 326 327 1344
2019-07-14 14:22:16 GMT 49.489685 2.489368 13,250 326 326 1408
2019-07-14 14:22:12 GMT 49.484982 2.494268 12,975 326 322 1728
2019-07-14 14:22:09 GMT 49.481232 2.498305 13,025 326 324 1472
2019-07-14 14:22:06 GMT 49.476929 2.503004 13,000 326 324 1408
2019-07-14 14:22:01 GMT 49.471115 2.509147 12,875 326 323 1920
2019-07-14 14:21:57 GMT 49.465618 2.514681 12,725 329 322 1984
2019-07-14 14:21:53 GMT 49.461845 2.518319 12,625 330 322 1920
2019-07-14 14:21:50 GMT 49.457016 2.522085 11,075 341 317 1472
2019-07-14 14:21:45 GMT 49.449966 2.526566 12,375 340 320 1408
2019-07-14 14:21:40 GMT 49.443008 2.530325 12,250 341 318 1536
2019-07-14 14:21:36 GMT 49.437965 2.532942 12,150 341 317 1856
2019-07-14 14:21:33 GMT 49.431820 2.536357 12,025 341 317 1984
2019-07-14 14:21:30 GMT 49.427536 2.538546 11,900 341 318 1984
2019-07-14 14:21:27 GMT 49.424046 2.540516 11,825 341 317 1664
2019-07-14 14:21:23 GMT 49.419159 2.543053 11,750 341 317 1536
2019-07-14 14:21:18 GMT 49.409729 2.548194 11,550 341 315 1984
2019-07-14 14:21:12 GMT 49.402634 2.551997 11,375 341 316 2048
2019-07-14 14:21:07 GMT 49.398117 2.554394 11,275 341 316 1792
2019-07-14 14:21:00 GMT 49.386658 2.560730 11,025 341 315 1856
2019-07-14 14:20:57 GMT 49.383591 2.562279 10,975 341 315 1792
2019-07-14 14:20:52 GMT 49.377594 2.565730 10,750 341 313 1344
2019-07-14 14:20:49 GMT 49.372463 2.568416 10,725 341 312 1344
2019-07-14 14:20:46 GMT 49.368759 2.570378 10,700 341 311 1408
2019-07-14 14:20:42 GMT 49.363342 2.573258 10,600 341 310 1728
2019-07-14 14:20:38 GMT 49.354156 2.578266 10,425 341 309 1344
2019-07-14 14:20:32 GMT 49.349377 2.580847 10,350 341 306 704
2019-07-14 14:20:28 GMT 49.339600 2.586153 10,250 341 302 640
2019-07-14 14:20:19 GMT 49.332432 2.589882 10,100 341 298 1664
2019-07-14 14:20:16 GMT 49.326706 2.593063 10,050 341 297 1088
2019-07-14 14:20:13 GMT 49.323959 2.594436 10,050 341 293 64
2019-07-14 14:20:10 GMT 49.320698 2.596098 10,050 341 292 0
2019-07-14 14:20:07 GMT 49.316929 2.598194 10,050 341 289 64
2019-07-14 14:20:03 GMT 49.312321 2.600724 10,025 341 283 128
2019-07-14 14:19:59 GMT 49.303482 2.605380 10,000 341 274 512
2019-07-14 14:19:53 GMT 49.299911 2.607422 9,925 341 273 960
2019-07-14 14:19:49 GMT 49.294815 2.610193 9,925 341 271 1024
2019-07-14 14:19:46 GMT 49.291763 2.611859 9,875 341 272 1024
2019-07-14 14:19:42 GMT 49.286865 2.614676 9,725 340 274 960
2019-07-14 14:19:39 GMT 49.282471 2.617070 9,750 340 274 960
2019-07-14 14:19:36 GMT 49.279358 2.618760 9,700 340 275 960
2019-07-14 14:19:30 GMT 49.271484 2.623197 9,575 340 278 1024
2019-07-14 14:19:26 GMT 49.266769 2.625803 9,500 340 279 1024
2019-07-14 14:19:22 GMT 49.262508 2.628190 9,125 341 277 960
2019-07-14 14:19:19 GMT 49.253952 2.632845 9,350 341 277 960
2019-07-14 14:19:15 GMT 49.253952 2.632845 9,325 341 277 960
2019-07-14 14:19:08 GMT 49.243980 2.638164 9,175 341 277 1024
2019-07-14 14:19:04 GMT 49.238209 2.641417 9,125 341 277 1024
2019-07-14 14:18:59 GMT 49.234863 2.643198 9,050 341 277 960
2019-07-14 14:18:55 GMT 49.227036 2.647271 8,950 341 276 1024
2019-07-14 14:18:48 GMT 49.221680 2.650170 8,875 341 275 960
2019-07-14 14:18:45 GMT 49.218567 2.651719 8,825 341 275 960
2019-07-14 14:18:42 GMT 49.214401 2.653973 8,800 341 275 960
2019-07-14 14:18:39 GMT 49.211151 2.655874 8,725 341 274 1024
2019-07-14 14:18:36 GMT 49.206741 2.658258 8,675 341 273 1024
2019-07-14 14:18:33 GMT 49.198174 2.662739 8,425 341 271 960
2019-07-14 14:18:29 GMT 49.198174 2.662739 8,425 341 271 960
2019-07-14 14:18:26 GMT 49.195007 2.664474 8,525 341 271 1024
2019-07-14 14:18:22 GMT 49.191101 2.666509 8,475 341 271 1024
2019-07-14 14:18:18 GMT 49.184532 2.670111 8,350 341 272 960
2019-07-14 14:18:15 GMT 49.182541 2.671086 8,325 341 273 1024
2019-07-14 14:18:12 GMT 49.176712 2.674231 8,300 341 273 1024
2019-07-14 14:18:07 GMT 49.171509 2.677002 8,150 341 272 1472
2019-07-14 14:18:02 GMT 49.166611 2.679678 7,950 341 270 1920
2019-07-14 14:17:58 GMT 49.162048 2.682110 7,900 341 269 1920
2019-07-14 14:17:54 GMT 49.156952 2.684819 7,650 341 267 2048
2019-07-14 14:17:50 GMT 49.151112 2.688109 7,700 341 267 2112
2019-07-14 14:17:47 GMT 49.149761 2.688759 7,550 341 266 2304
2019-07-14 14:17:43 GMT 49.143055 2.692590 7,325 341 266 2368
2019-07-14 14:17:39 GMT 49.138077 2.695120 7,150 340 266 2368
2019-07-14 14:17:35 GMT 49.131512 2.698951 6,975 340 265 2368
2019-07-14 14:17:32 GMT 49.131512 2.698951 6,975 340 266 2368
2019-07-14 14:17:29 GMT 49.123459 2.703576 6,700 340 265 2304
2019-07-14 14:17:25 GMT 49.123459 2.703576 6,625 340 265 2240
2019-07-14 14:17:22 GMT 49.119873 2.705456 6,550 340 264 2112
2019-07-14 14:17:18 GMT 49.110764 2.710806 6,250 340 263 2368
2019-07-14 14:17:14 GMT 49.110764 2.710806 6,150 340 263 2368
2019-07-14 14:17:11 GMT 49.107834 2.712496 6,150 340 263 2368
2019-07-14 14:17:08 GMT 49.103897 2.714750 5,950 340 262 2176
2019-07-14 14:17:04 GMT 49.099388 2.717309 5,875 340 261 1664
2019-07-14 14:17:01 GMT 49.096550 2.719044 5,800 340 261 1600
2019-07-14 14:16:56 GMT 49.090347 2.722285 5,675 341 258 1280
2019-07-14 14:16:53 GMT 49.086914 2.724187 5,550 341 255 1280
2019-07-14 14:16:50 GMT 49.083469 2.726055 5,550 343 248 1088
2019-07-14 14:16:46 GMT 49.079178 2.728131 5,450 344 247 1024
2019-07-14 14:16:40 GMT 49.066666 2.733138 5,200 359 217 1280
2019-07-14 14:16:35 GMT 49.066666 2.733138 5,250 348 233 1152
2019-07-14 14:16:29 GMT 49.060776 2.734891 5,175 352 225 1024
2019-07-14 14:16:22 GMT 49.049999 2.736102 5,025 0 216 1344
2019-07-14 14:16:18 GMT 49.049999 2.736102 4,850 4 212 1472
2019-07-14 14:16:13 GMT 49.045303 2.734962 4,775 17 207 2368
2019-07-14 14:16:10 GMT 49.042053 2.733413 4,475 20 206 2560
2019-07-14 14:16:07 GMT 49.040314 2.732199 4,650 27 207 2560
2019-07-14 14:16:04 GMT 49.037754 2.729741 4,475 52 205 576
2019-07-14 14:16:00 GMT 49.034454 2.724750 4,450 55 204 576
2019-07-14 14:15:57 GMT 49.032539 2.720634 4,375 60 202 576
2019-07-14 14:15:52 GMT 49.030792 2.714820 4,350 72 199 448
2019-07-14 14:15:49 GMT 49.030308 2.711744 4,325 77 198 512
2019-07-14 14:15:46 GMT 49.029747 2.707118 4,300 82 195 512
2019-07-14 14:15:41 GMT 49.029236 2.700107 4,225 85 191 960
2019-07-14 14:15:38 GMT 49.029099 2.695312 4,150 85 188 960
2019-07-14 14:15:35 GMT 49.028915 2.692707 4,100 84 182 1024
2019-07-14 14:15:30 GMT 49.028366 2.685805 4,075 84 181 1216
2019-07-14 14:15:27 GMT 49.028229 2.682566 4,000 84 178 960
2019-07-14 14:15:24 GMT 49.028046 2.679185 3,975 85 175 768
2019-07-14 14:15:20 GMT 49.027725 2.672988 3,900 84 170 960
2019-07-14 14:15:16 GMT 49.027374 2.668810 3,825 85 164 896
2019-07-14 14:15:13 GMT 49.027176 2.665875 3,750 84 158 768
2019-07-14 14:15:09 GMT 49.026855 2.659396 3,725 84 159 768
2019-07-14 14:15:06 GMT 49.026672 2.657142 3,700 84 153 832
2019-07-14 14:15:03 GMT 49.026489 2.654138 3,675 84 152 832
2019-07-14 14:14:58 GMT 49.026161 2.649078 3,600 84 147 960
2019-07-14 14:14:53 GMT 49.025803 2.643550 3,500 85 140 768
2019-07-14 14:14:47 GMT 49.025650 2.638743 3,400 85 136 1408
2019-07-14 14:14:42 GMT 49.025280 2.632743 3,225 85 137 1920
2019-07-14 14:14:37 GMT 49.025139 2.628407 3,100 85 138 1792
2019-07-14 14:14:30 GMT 49.024429 2.618690 2,275 85 138 1344
2019-07-14 14:14:27 GMT 49.024429 2.618690 2,825 84 136 1536
2019-07-14 14:14:20 GMT 49.024117 2.612505 2,625 84 138 1792
2019-07-14 14:14:17 GMT 49.023926 2.609394 2,525 84 139 1280
2019-07-14 14:14:14 GMT 49.023422 2.602492 2,400 85 138 1280
2019-07-14 14:14:10 GMT 49.023422 2.602492 2,350 84 137 1216
2019-07-14 14:14:06 GMT 49.023232 2.598628 2,300 85 135 1600
2019-07-14 14:13:59 GMT 49.022873 2.591999 2,075 86 136 1664
2019-07-14 14:13:56 GMT 49.022720 2.587931 1,975 87 134 1664
2019-07-14 14:13:49 GMT 49.022533 2.582582 1,650 86 137 1792
2019-07-14 14:13:45 GMT 49.022392 2.578535 1,650 87 136 1216
2019-07-14 14:13:38 GMT 49.022205 2.572246 1,525 88 133 1152
2019-07-14 14:13:34 GMT 49.022186 2.568406 1,425 89 132 1600
2019-07-14 14:13:28 GMT 49.022049 2.562702 1,225 87 133 2944
2019-07-14 14:13:25 GMT 49.022049 2.560167 1,050 86 138 2432
2019-07-14 14:13:15 GMT 49.021500 2.550166 825 85 134 1472

Making use of Plane Finder data

You are free to use the raw flight data, aircraft information and images provided in this report for your own purposes provided the data is correctly attributed to Plane Finder. We ask that you please credit Plane Finder and link to planefinder.net in close proximity to the content.

Optionally one of the following logos (no smaller then 150x24px) can be used and must link to planefinder.net

Embedding the Plane Finder map

You are welcome to embed the Plane Finder playback map on your website to offer visitors a more interactive experience. We suggest using the following HTML code:

<iframe src="//planefinder.net/data/report/AF1158-EI-RJF-7700-squawk-2019-07-14/map" width="800" height="600" seamless="seamless"></iframe>

Where our data comes from

Plane Finder has a global network of data feeds and antenna radars that receive data broadcast directly from aircraft. The primary technologies used are ADS-B and MLAT. We also show feeds from the FAA and a FLARM glider feed.

Click here to find out more about the Plane Finder network.

How we collect our data